<?xml version="1.0" encoding="UTF-8" ?>
<gpx xmlns="http://www.topografix.com/GPX/1/1" version="1.1" creator="RouteGadget GPS Tracking" xmlns:xsi="http://www.w3.org/2001/XMLSchema-instance" xmlns:tp1="http://www.garmin.com/xmlschemas/TrackPointExtension/v1" xsi:schemaLocation="http://www.topografix.com/GPX/1/1 http://www.topografix.com/GPX/1/1/gpx.xsd http://www.garmin.com/xmlschemas/TrackPointExtension/v1 http://www.garmin.com/xmlschemas/TrackPointExtensionv1.xsd">
<trk>
<trkseg><trkpt lat="44.462767" lon="8.664115">
<time>2020-12-27T12:52:56Z</time>
</trkpt>
<trkpt lat="44.462772" lon="8.664109">
<time>2020-12-27T12:52:57Z</time>
</trkpt>
<trkpt lat="44.462888" lon="8.664079">
<time>2020-12-27T12:53:04Z</time>
</trkpt>
<trkpt lat="44.46296" lon="8.664039">
<time>2020-12-27T12:53:08Z</time>
</trkpt>
<trkpt lat="44.463011" lon="8.664005">
<time>2020-12-27T12:53:11Z</time>
</trkpt>
<trkpt lat="44.46304" lon="8.663994">
<time>2020-12-27T12:53:13Z</time>
</trkpt>
<trkpt lat="44.463071" lon="8.663997">
<time>2020-12-27T12:53:15Z</time>
</trkpt>
<trkpt lat="44.463156" lon="8.664">
<time>2020-12-27T12:53:19Z</time>
</trkpt>
<trkpt lat="44.463227" lon="8.664011">
<time>2020-12-27T12:53:23Z</time>
</trkpt>
<trkpt lat="44.463283" lon="8.664013">
<time>2020-12-27T12:53:26Z</time>
</trkpt>
<trkpt lat="44.463346" lon="8.664012">
<time>2020-12-27T12:53:30Z</time>
</trkpt>
<trkpt lat="44.463429" lon="8.664002">
<time>2020-12-27T12:53:35Z</time>
</trkpt>
<trkpt lat="44.463476" lon="8.663997">
<time>2020-12-27T12:53:39Z</time>
</trkpt>
<trkpt lat="44.463593" lon="8.663836">
<time>2020-12-27T12:53:50Z</time>
</trkpt>
<trkpt lat="44.463647" lon="8.663593">
<time>2020-12-27T12:54:01Z</time>
</trkpt>
<trkpt lat="44.463737" lon="8.663358">
<time>2020-12-27T12:54:12Z</time>
</trkpt>
<trkpt lat="44.46383" lon="8.663128">
<time>2020-12-27T12:54:25Z</time>
</trkpt>
<trkpt lat="44.463856" lon="8.663031">
<time>2020-12-27T12:54:31Z</time>
</trkpt>
<trkpt lat="44.463944" lon="8.662768">
<time>2020-12-27T12:54:43Z</time>
</trkpt>
<trkpt lat="44.464004" lon="8.662599">
<time>2020-12-27T12:54:51Z</time>
</trkpt>
<trkpt lat="44.464014" lon="8.662378">
<time>2020-12-27T12:55:01Z</time>
</trkpt>
<trkpt lat="44.464009" lon="8.662242">
<time>2020-12-27T12:55:08Z</time>
</trkpt>
<trkpt lat="44.463888" lon="8.66203">
<time>2020-12-27T12:55:17Z</time>
</trkpt>
<trkpt lat="44.463786" lon="8.6618">
<time>2020-12-27T12:55:30Z</time>
</trkpt>
<trkpt lat="44.463788" lon="8.661755">
<time>2020-12-27T12:55:32Z</time>
</trkpt>
<trkpt lat="44.463848" lon="8.661511">
<time>2020-12-27T12:55:44Z</time>
</trkpt>
<trkpt lat="44.463927" lon="8.661369">
<time>2020-12-27T12:55:50Z</time>
</trkpt>
<trkpt lat="44.463956" lon="8.661132">
<time>2020-12-27T12:55:59Z</time>
</trkpt>
<trkpt lat="44.463949" lon="8.66107">
<time>2020-12-27T12:56:02Z</time>
</trkpt>
<trkpt lat="44.463937" lon="8.661015">
<time>2020-12-27T12:56:07Z</time>
</trkpt>
<trkpt lat="44.463926" lon="8.660956">
<time>2020-12-27T12:56:10Z</time>
</trkpt>
<trkpt lat="44.463905" lon="8.660869">
<time>2020-12-27T12:56:15Z</time>
</trkpt>
<trkpt lat="44.463845" lon="8.66062">
<time>2020-12-27T12:56:28Z</time>
</trkpt>
<trkpt lat="44.463779" lon="8.660455">
<time>2020-12-27T12:56:35Z</time>
</trkpt>
<trkpt lat="44.463733" lon="8.660281">
<time>2020-12-27T12:56:43Z</time>
</trkpt>
<trkpt lat="44.46368" lon="8.660174">
<time>2020-12-27T12:56:52Z</time>
</trkpt>
<trkpt lat="44.463633" lon="8.660021">
<time>2020-12-27T12:57:03Z</time>
</trkpt>
<trkpt lat="44.463611" lon="8.65996">
<time>2020-12-27T12:57:08Z</time>
</trkpt>
<trkpt lat="44.463528" lon="8.659786">
<time>2020-12-27T12:57:21Z</time>
</trkpt>
<trkpt lat="44.463542" lon="8.659714">
<time>2020-12-27T12:57:27Z</time>
</trkpt>
<trkpt lat="44.463579" lon="8.659655">
<time>2020-12-27T12:57:30Z</time>
</trkpt>
<trkpt lat="44.463589" lon="8.659589">
<time>2020-12-27T12:57:34Z</time>
</trkpt>
<trkpt lat="44.463583" lon="8.659546">
<time>2020-12-27T12:57:37Z</time>
</trkpt>
<trkpt lat="44.463567" lon="8.6595">
<time>2020-12-27T12:57:42Z</time>
</trkpt>
<trkpt lat="44.463556" lon="8.659437">
<time>2020-12-27T12:57:47Z</time>
</trkpt>
<trkpt lat="44.463538" lon="8.659374">
<time>2020-12-27T12:57:52Z</time>
</trkpt>
<trkpt lat="44.463538" lon="8.659259">
<time>2020-12-27T12:58:00Z</time>
</trkpt>
<trkpt lat="44.463493" lon="8.659141">
<time>2020-12-27T12:58:05Z</time>
</trkpt>
<trkpt lat="44.463493" lon="8.659081">
<time>2020-12-27T12:58:08Z</time>
</trkpt>
<trkpt lat="44.463511" lon="8.659053">
<time>2020-12-27T12:58:11Z</time>
</trkpt>
<trkpt lat="44.46363" lon="8.658918">
<time>2020-12-27T12:58:19Z</time>
</trkpt>
<trkpt lat="44.463668" lon="8.65887">
<time>2020-12-27T12:58:22Z</time>
</trkpt>
<trkpt lat="44.463726" lon="8.658754">
<time>2020-12-27T12:58:30Z</time>
</trkpt>
<trkpt lat="44.463858" lon="8.658584">
<time>2020-12-27T12:58:41Z</time>
</trkpt>
<trkpt lat="44.46403" lon="8.658507">
<time>2020-12-27T12:58:54Z</time>
</trkpt>
<trkpt lat="44.464194" lon="8.658361">
<time>2020-12-27T12:59:05Z</time>
</trkpt>
<trkpt lat="44.464294" lon="8.658317">
<time>2020-12-27T12:59:12Z</time>
</trkpt>
<trkpt lat="44.464346" lon="8.65829">
<time>2020-12-27T12:59:17Z</time>
</trkpt>
<trkpt lat="44.464502" lon="8.658389">
<time>2020-12-27T12:59:32Z</time>
</trkpt>
<trkpt lat="44.464521" lon="8.658414">
<time>2020-12-27T12:59:37Z</time>
</trkpt>
<trkpt lat="44.464562" lon="8.658428">
<time>2020-12-27T12:59:41Z</time>
</trkpt>
<trkpt lat="44.464579" lon="8.658428">
<time>2020-12-27T12:59:44Z</time>
</trkpt>
<trkpt lat="44.464599" lon="8.658444">
<time>2020-12-27T12:59:50Z</time>
</trkpt>
<trkpt lat="44.464623" lon="8.658452">
<time>2020-12-27T12:59:57Z</time>
</trkpt>
<trkpt lat="44.464645" lon="8.658475">
<time>2020-12-27T13:00:00Z</time>
</trkpt>
<trkpt lat="44.464794" lon="8.65838">
<time>2020-12-27T13:00:17Z</time>
</trkpt>
<trkpt lat="44.464801" lon="8.658374">
<time>2020-12-27T13:00:19Z</time>
</trkpt>
<trkpt lat="44.464812" lon="8.658352">
<time>2020-12-27T13:00:23Z</time>
</trkpt>
<trkpt lat="44.464845" lon="8.658364">
<time>2020-12-27T13:00:34Z</time>
</trkpt>
<trkpt lat="44.464943" lon="8.658347">
<time>2020-12-27T13:01:02Z</time>
</trkpt>
<trkpt lat="44.464954" lon="8.658341">
<time>2020-12-27T13:01:06Z</time>
</trkpt>
<trkpt lat="44.464956" lon="8.658343">
<time>2020-12-27T13:01:09Z</time>
</trkpt>
<trkpt lat="44.464956" lon="8.658342">
<time>2020-12-27T13:01:13Z</time>
</trkpt>
<trkpt lat="44.464958" lon="8.658335">
<time>2020-12-27T13:01:16Z</time>
</trkpt>
<trkpt lat="44.465083" lon="8.658152">
<time>2020-12-27T13:01:30Z</time>
</trkpt>
<trkpt lat="44.465101" lon="8.658038">
<time>2020-12-27T13:01:34Z</time>
</trkpt>
<trkpt lat="44.465111" lon="8.657776">
<time>2020-12-27T13:01:44Z</time>
</trkpt>
<trkpt lat="44.465109" lon="8.65764">
<time>2020-12-27T13:01:49Z</time>
</trkpt>
<trkpt lat="44.46512" lon="8.657486">
<time>2020-12-27T13:01:55Z</time>
</trkpt>
<trkpt lat="44.465162" lon="8.65741">
<time>2020-12-27T13:01:59Z</time>
</trkpt>
<trkpt lat="44.465208" lon="8.657275">
<time>2020-12-27T13:02:05Z</time>
</trkpt>
<trkpt lat="44.465276" lon="8.65714">
<time>2020-12-27T13:02:14Z</time>
</trkpt>
<trkpt lat="44.46528" lon="8.657115">
<time>2020-12-27T13:02:17Z</time>
</trkpt>
<trkpt lat="44.46528" lon="8.656866">
<time>2020-12-27T13:02:31Z</time>
</trkpt>
<trkpt lat="44.465303" lon="8.65674">
<time>2020-12-27T13:02:36Z</time>
</trkpt>
<trkpt lat="44.465329" lon="8.656493">
<time>2020-12-27T13:02:47Z</time>
</trkpt>
<trkpt lat="44.46532" lon="8.656374">
<time>2020-12-27T13:02:53Z</time>
</trkpt>
<trkpt lat="44.465302" lon="8.656266">
<time>2020-12-27T13:03:03Z</time>
</trkpt>
<trkpt lat="44.465301" lon="8.656259">
<time>2020-12-27T13:03:11Z</time>
</trkpt>
<trkpt lat="44.465296" lon="8.656244">
<time>2020-12-27T13:03:16Z</time>
</trkpt>
<trkpt lat="44.46525" lon="8.656191">
<time>2020-12-27T13:03:21Z</time>
</trkpt>
<trkpt lat="44.465143" lon="8.655978">
<time>2020-12-27T13:03:29Z</time>
</trkpt>
<trkpt lat="44.465136" lon="8.655908">
<time>2020-12-27T13:03:33Z</time>
</trkpt>
<trkpt lat="44.465107" lon="8.655892">
<time>2020-12-27T13:03:37Z</time>
</trkpt>
<trkpt lat="44.4651" lon="8.655886">
<time>2020-12-27T13:03:38Z</time>
</trkpt>
<trkpt lat="44.465104" lon="8.655883">
<time>2020-12-27T13:03:42Z</time>
</trkpt>
<trkpt lat="44.465103" lon="8.655886">
<time>2020-12-27T13:03:49Z</time>
</trkpt>
<trkpt lat="44.465072" lon="8.655843">
<time>2020-12-27T13:03:55Z</time>
</trkpt>
<trkpt lat="44.465002" lon="8.655678">
<time>2020-12-27T13:04:00Z</time>
</trkpt>
<trkpt lat="44.46488" lon="8.655491">
<time>2020-12-27T13:04:06Z</time>
</trkpt>
<trkpt lat="44.46477" lon="8.655376">
<time>2020-12-27T13:04:11Z</time>
</trkpt>
<trkpt lat="44.464764" lon="8.655133">
<time>2020-12-27T13:04:17Z</time>
</trkpt>
<trkpt lat="44.46482" lon="8.654936">
<time>2020-12-27T13:04:25Z</time>
</trkpt>
<trkpt lat="44.464812" lon="8.654659">
<time>2020-12-27T13:04:37Z</time>
</trkpt>
<trkpt lat="44.464777" lon="8.654404">
<time>2020-12-27T13:04:45Z</time>
</trkpt>
<trkpt lat="44.464767" lon="8.654134">
<time>2020-12-27T13:04:54Z</time>
</trkpt>
<trkpt lat="44.464761" lon="8.653868">
<time>2020-12-27T13:05:07Z</time>
</trkpt>
<trkpt lat="44.464719" lon="8.653747">
<time>2020-12-27T13:05:12Z</time>
</trkpt>
<trkpt lat="44.464691" lon="8.653689">
<time>2020-12-27T13:05:18Z</time>
</trkpt>
<trkpt lat="44.464631" lon="8.653658">
<time>2020-12-27T13:05:29Z</time>
</trkpt>
<trkpt lat="44.464617" lon="8.653381">
<time>2020-12-27T13:05:40Z</time>
</trkpt>
<trkpt lat="44.464614" lon="8.653174">
<time>2020-12-27T13:05:51Z</time>
</trkpt>
<trkpt lat="44.464607" lon="8.653101">
<time>2020-12-27T13:05:56Z</time>
</trkpt>
<trkpt lat="44.464592" lon="8.652932">
<time>2020-12-27T13:06:05Z</time>
</trkpt>
<trkpt lat="44.464612" lon="8.652807">
<time>2020-12-27T13:06:12Z</time>
</trkpt>
<trkpt lat="44.464617" lon="8.652786">
<time>2020-12-27T13:06:15Z</time>
</trkpt>
<trkpt lat="44.464619" lon="8.652757">
<time>2020-12-27T13:06:17Z</time>
</trkpt>
<trkpt lat="44.464618" lon="8.652601">
<time>2020-12-27T13:06:24Z</time>
</trkpt>
<trkpt lat="44.464618" lon="8.652589">
<time>2020-12-27T13:06:26Z</time>
</trkpt>
<trkpt lat="44.464612" lon="8.652583">
<time>2020-12-27T13:06:32Z</time>
</trkpt>
<trkpt lat="44.464613" lon="8.652588">
<time>2020-12-27T13:06:37Z</time>
</trkpt>
<trkpt lat="44.464631" lon="8.652575">
<time>2020-12-27T13:06:43Z</time>
</trkpt>
<trkpt lat="44.464674" lon="8.65257">
<time>2020-12-27T13:06:47Z</time>
</trkpt>
<trkpt lat="44.464681" lon="8.652552">
<time>2020-12-27T13:06:50Z</time>
</trkpt>
<trkpt lat="44.464687" lon="8.652548">
<time>2020-12-27T13:06:52Z</time>
</trkpt>
<trkpt lat="44.46469" lon="8.652548">
<time>2020-12-27T13:06:55Z</time>
</trkpt>
<trkpt lat="44.464692" lon="8.652546">
<time>2020-12-27T13:06:58Z</time>
</trkpt>
<trkpt lat="44.464686" lon="8.652537">
<time>2020-12-27T13:07:01Z</time>
</trkpt>
<trkpt lat="44.464681" lon="8.65239">
<time>2020-12-27T13:07:09Z</time>
</trkpt>
<trkpt lat="44.464735" lon="8.652333">
<time>2020-12-27T13:07:14Z</time>
</trkpt>
<trkpt lat="44.464809" lon="8.652253">
<time>2020-12-27T13:07:21Z</time>
</trkpt>
<trkpt lat="44.46481" lon="8.652208">
<time>2020-12-27T13:07:23Z</time>
</trkpt>
<trkpt lat="44.464834" lon="8.652148">
<time>2020-12-27T13:07:28Z</time>
</trkpt>
<trkpt lat="44.46502" lon="8.652066">
<time>2020-12-27T13:07:40Z</time>
</trkpt>
<trkpt lat="44.465085" lon="8.65203">
<time>2020-12-27T13:07:43Z</time>
</trkpt>
<trkpt lat="44.465142" lon="8.652002">
<time>2020-12-27T13:07:46Z</time>
</trkpt>
<trkpt lat="44.465204" lon="8.651963">
<time>2020-12-27T13:07:50Z</time>
</trkpt>
<trkpt lat="44.465245" lon="8.651908">
<time>2020-12-27T13:07:56Z</time>
</trkpt>
<trkpt lat="44.465251" lon="8.651823">
<time>2020-12-27T13:07:59Z</time>
</trkpt>
<trkpt lat="44.465271" lon="8.65175">
<time>2020-12-27T13:08:02Z</time>
</trkpt>
<trkpt lat="44.465445" lon="8.651657">
<time>2020-12-27T13:08:11Z</time>
</trkpt>
<trkpt lat="44.465484" lon="8.651636">
<time>2020-12-27T13:08:15Z</time>
</trkpt>
<trkpt lat="44.465663" lon="8.651753">
<time>2020-12-27T13:08:28Z</time>
</trkpt>
<trkpt lat="44.465698" lon="8.651777">
<time>2020-12-27T13:08:31Z</time>
</trkpt>
<trkpt lat="44.46575" lon="8.65178">
<time>2020-12-27T13:08:35Z</time>
</trkpt>
<trkpt lat="44.465762" lon="8.651791">
<time>2020-12-27T13:08:36Z</time>
</trkpt>
<trkpt lat="44.465778" lon="8.651818">
<time>2020-12-27T13:08:40Z</time>
</trkpt>
<trkpt lat="44.465916" lon="8.651694">
<time>2020-12-27T13:09:05Z</time>
</trkpt>
<trkpt lat="44.466011" lon="8.65163">
<time>2020-12-27T13:09:19Z</time>
</trkpt>
<trkpt lat="44.466127" lon="8.651652">
<time>2020-12-27T13:09:33Z</time>
</trkpt>
<trkpt lat="44.46615" lon="8.651644">
<time>2020-12-27T13:09:36Z</time>
</trkpt>
<trkpt lat="44.466163" lon="8.65163">
<time>2020-12-27T13:09:38Z</time>
</trkpt>
<trkpt lat="44.466172" lon="8.651615">
<time>2020-12-27T13:09:40Z</time>
</trkpt>
<trkpt lat="44.466187" lon="8.651586">
<time>2020-12-27T13:09:43Z</time>
</trkpt>
<trkpt lat="44.46619" lon="8.651553">
<time>2020-12-27T13:09:49Z</time>
</trkpt>
<trkpt lat="44.466193" lon="8.651555">
<time>2020-12-27T13:09:51Z</time>
</trkpt>
<trkpt lat="44.466206" lon="8.651806">
<time>2020-12-27T13:10:03Z</time>
</trkpt>
<trkpt lat="44.466212" lon="8.651901">
<time>2020-12-27T13:10:07Z</time>
</trkpt>
<trkpt lat="44.466271" lon="8.652009">
<time>2020-12-27T13:10:15Z</time>
</trkpt>
<trkpt lat="44.466273" lon="8.652049">
<time>2020-12-27T13:10:18Z</time>
</trkpt>
<trkpt lat="44.466269" lon="8.652073">
<time>2020-12-27T13:10:22Z</time>
</trkpt>
<trkpt lat="44.466272" lon="8.652096">
<time>2020-12-27T13:10:25Z</time>
</trkpt>
<trkpt lat="44.466282" lon="8.652167">
<time>2020-12-27T13:10:30Z</time>
</trkpt>
<trkpt lat="44.466283" lon="8.652202">
<time>2020-12-27T13:10:32Z</time>
</trkpt>
<trkpt lat="44.466298" lon="8.652258">
<time>2020-12-27T13:10:37Z</time>
</trkpt>
<trkpt lat="44.466315" lon="8.652299">
<time>2020-12-27T13:10:43Z</time>
</trkpt>
<trkpt lat="44.46633" lon="8.652354">
<time>2020-12-27T13:10:48Z</time>
</trkpt>
<trkpt lat="44.466333" lon="8.652365">
<time>2020-12-27T13:10:50Z</time>
</trkpt>
<trkpt lat="44.466349" lon="8.652378">
<time>2020-12-27T13:10:55Z</time>
</trkpt>
<trkpt lat="44.466352" lon="8.652391">
<time>2020-12-27T13:10:57Z</time>
</trkpt>
<trkpt lat="44.466387" lon="8.652458">
<time>2020-12-27T13:11:01Z</time>
</trkpt>
<trkpt lat="44.466405" lon="8.652498">
<time>2020-12-27T13:11:04Z</time>
</trkpt>
<trkpt lat="44.466429" lon="8.65252">
<time>2020-12-27T13:11:09Z</time>
</trkpt>
<trkpt lat="44.466438" lon="8.65252">
<time>2020-12-27T13:11:11Z</time>
</trkpt>
<trkpt lat="44.466506" lon="8.652587">
<time>2020-12-27T13:11:18Z</time>
</trkpt>
<trkpt lat="44.466493" lon="8.65273">
<time>2020-12-27T13:11:28Z</time>
</trkpt>
<trkpt lat="44.466479" lon="8.652769">
<time>2020-12-27T13:11:32Z</time>
</trkpt>
<trkpt lat="44.466486" lon="8.6528">
<time>2020-12-27T13:11:36Z</time>
</trkpt>
<trkpt lat="44.466482" lon="8.652834">
<time>2020-12-27T13:11:39Z</time>
</trkpt>
<trkpt lat="44.466536" lon="8.65286">
<time>2020-12-27T13:11:44Z</time>
</trkpt>
<trkpt lat="44.466561" lon="8.652868">
<time>2020-12-27T13:11:50Z</time>
</trkpt>
<trkpt lat="44.466577" lon="8.652963">
<time>2020-12-27T13:11:58Z</time>
</trkpt>
<trkpt lat="44.4666" lon="8.653005">
<time>2020-12-27T13:12:04Z</time>
</trkpt>
<trkpt lat="44.466597" lon="8.653008">
<time>2020-12-27T13:12:06Z</time>
</trkpt>
<trkpt lat="44.466597" lon="8.653009">
<time>2020-12-27T13:12:08Z</time>
</trkpt>
<trkpt lat="44.466596" lon="8.653005">
<time>2020-12-27T13:12:10Z</time>
</trkpt>
<trkpt lat="44.466603" lon="8.653003">
<time>2020-12-27T13:12:13Z</time>
</trkpt>
<trkpt lat="44.466604" lon="8.653003">
<time>2020-12-27T13:12:14Z</time>
</trkpt>
<trkpt lat="44.46661" lon="8.653014">
<time>2020-12-27T13:12:17Z</time>
</trkpt>
<trkpt lat="44.466612" lon="8.653019">
<time>2020-12-27T13:12:19Z</time>
</trkpt>
<trkpt lat="44.466614" lon="8.653023">
<time>2020-12-27T13:12:22Z</time>
</trkpt>
<trkpt lat="44.466662" lon="8.653037">
<time>2020-12-27T13:12:28Z</time>
</trkpt>
<trkpt lat="44.466695" lon="8.653034">
<time>2020-12-27T13:12:32Z</time>
</trkpt>
<trkpt lat="44.466721" lon="8.653044">
<time>2020-12-27T13:12:35Z</time>
</trkpt>
<trkpt lat="44.466763" lon="8.653062">
<time>2020-12-27T13:12:41Z</time>
</trkpt>
<trkpt lat="44.466776" lon="8.653066">
<time>2020-12-27T13:12:44Z</time>
</trkpt>
<trkpt lat="44.466777" lon="8.653067">
<time>2020-12-27T13:12:46Z</time>
</trkpt>
<trkpt lat="44.466785" lon="8.653061">
<time>2020-12-27T13:12:49Z</time>
</trkpt>
<trkpt lat="44.466786" lon="8.653059">
<time>2020-12-27T13:12:55Z</time>
</trkpt>
<trkpt lat="44.466785" lon="8.653056">
<time>2020-12-27T13:12:57Z</time>
</trkpt>
<trkpt lat="44.466785" lon="8.653059">
<time>2020-12-27T13:13:00Z</time>
</trkpt>
<trkpt lat="44.466772" lon="8.653058">
<time>2020-12-27T13:13:07Z</time>
</trkpt>
<trkpt lat="44.466772" lon="8.653058">
<time>2020-12-27T13:13:08Z</time>
</trkpt>
<trkpt lat="44.466772" lon="8.653057">
<time>2020-12-27T13:13:10Z</time>
</trkpt>
<trkpt lat="44.466773" lon="8.653057">
<time>2020-12-27T13:13:12Z</time>
</trkpt>
<trkpt lat="44.466778" lon="8.653055">
<time>2020-12-27T13:13:15Z</time>
</trkpt>
<trkpt lat="44.466787" lon="8.653059">
<time>2020-12-27T13:13:18Z</time>
</trkpt>
<trkpt lat="44.466793" lon="8.653037">
<time>2020-12-27T13:13:23Z</time>
</trkpt>
<trkpt lat="44.466802" lon="8.653037">
<time>2020-12-27T13:13:28Z</time>
</trkpt>
<trkpt lat="44.466802" lon="8.653034">
<time>2020-12-27T13:13:29Z</time>
</trkpt>
<trkpt lat="44.466788" lon="8.653031">
<time>2020-12-27T13:13:36Z</time>
</trkpt>
<trkpt lat="44.466788" lon="8.65303">
<time>2020-12-27T13:13:40Z</time>
</trkpt>
<trkpt lat="44.466791" lon="8.653036">
<time>2020-12-27T13:13:44Z</time>
</trkpt>
<trkpt lat="44.466805" lon="8.653026">
<time>2020-12-27T13:13:53Z</time>
</trkpt>
<trkpt lat="44.466813" lon="8.653024">
<time>2020-12-27T13:14:08Z</time>
</trkpt>
<trkpt lat="44.466815" lon="8.653041">
<time>2020-12-27T13:14:21Z</time>
</trkpt>
<trkpt lat="44.466825" lon="8.653109">
<time>2020-12-27T13:14:30Z</time>
</trkpt>
<trkpt lat="44.466808" lon="8.653123">
<time>2020-12-27T13:14:34Z</time>
</trkpt>
<trkpt lat="44.466794" lon="8.653143">
<time>2020-12-27T13:14:36Z</time>
</trkpt>
<trkpt lat="44.466752" lon="8.653199">
<time>2020-12-27T13:14:40Z</time>
</trkpt>
<trkpt lat="44.46674" lon="8.653241">
<time>2020-12-27T13:14:43Z</time>
</trkpt>
<trkpt lat="44.466731" lon="8.653291">
<time>2020-12-27T13:14:48Z</time>
</trkpt>
<trkpt lat="44.466729" lon="8.653327">
<time>2020-12-27T13:14:53Z</time>
</trkpt>
<trkpt lat="44.46674" lon="8.653365">
<time>2020-12-27T13:14:59Z</time>
</trkpt>
<trkpt lat="44.466748" lon="8.653421">
<time>2020-12-27T13:15:12Z</time>
</trkpt>
<trkpt lat="44.466735" lon="8.653484">
<time>2020-12-27T13:15:20Z</time>
</trkpt>
<trkpt lat="44.466722" lon="8.653506">
<time>2020-12-27T13:15:23Z</time>
</trkpt>
<trkpt lat="44.466738" lon="8.653589">
<time>2020-12-27T13:15:29Z</time>
</trkpt>
<trkpt lat="44.466755" lon="8.653611">
<time>2020-12-27T13:15:32Z</time>
</trkpt>
<trkpt lat="44.466778" lon="8.653699">
<time>2020-12-27T13:15:44Z</time>
</trkpt>
<trkpt lat="44.466783" lon="8.653714">
<time>2020-12-27T13:15:50Z</time>
</trkpt>
<trkpt lat="44.466802" lon="8.653769">
<time>2020-12-27T13:16:01Z</time>
</trkpt>
<trkpt lat="44.466817" lon="8.653805">
<time>2020-12-27T13:16:05Z</time>
</trkpt>
<trkpt lat="44.466832" lon="8.653842">
<time>2020-12-27T13:16:09Z</time>
</trkpt>
<trkpt lat="44.466845" lon="8.653873">
<time>2020-12-27T13:16:12Z</time>
</trkpt>
<trkpt lat="44.466861" lon="8.653893">
<time>2020-12-27T13:16:15Z</time>
</trkpt>
<trkpt lat="44.466872" lon="8.653942">
<time>2020-12-27T13:16:21Z</time>
</trkpt>
<trkpt lat="44.466892" lon="8.653978">
<time>2020-12-27T13:16:25Z</time>
</trkpt>
<trkpt lat="44.466906" lon="8.654001">
<time>2020-12-27T13:16:27Z</time>
</trkpt>
<trkpt lat="44.466973" lon="8.65406">
<time>2020-12-27T13:16:38Z</time>
</trkpt>
<trkpt lat="44.466991" lon="8.654064">
<time>2020-12-27T13:16:41Z</time>
</trkpt>
<trkpt lat="44.466991" lon="8.654063">
<time>2020-12-27T13:16:43Z</time>
</trkpt>
<trkpt lat="44.466928" lon="8.65405">
<time>2020-12-27T13:16:48Z</time>
</trkpt>
<trkpt lat="44.466913" lon="8.654059">
<time>2020-12-27T13:16:52Z</time>
</trkpt>
<trkpt lat="44.46691" lon="8.654056">
<time>2020-12-27T13:16:54Z</time>
</trkpt>
<trkpt lat="44.466907" lon="8.654053">
<time>2020-12-27T13:16:56Z</time>
</trkpt>
<trkpt lat="44.466909" lon="8.65405">
<time>2020-12-27T13:16:59Z</time>
</trkpt>
<trkpt lat="44.466908" lon="8.654048">
<time>2020-12-27T13:17:01Z</time>
</trkpt>
<trkpt lat="44.466873" lon="8.653998">
<time>2020-12-27T13:17:06Z</time>
</trkpt>
<trkpt lat="44.466865" lon="8.653985">
<time>2020-12-27T13:17:08Z</time>
</trkpt>
<trkpt lat="44.466847" lon="8.653986">
<time>2020-12-27T13:17:13Z</time>
</trkpt>
<trkpt lat="44.466801" lon="8.653976">
<time>2020-12-27T13:17:24Z</time>
</trkpt>
<trkpt lat="44.466715" lon="8.653944">
<time>2020-12-27T13:17:42Z</time>
</trkpt>
<trkpt lat="44.466684" lon="8.653929">
<time>2020-12-27T13:17:50Z</time>
</trkpt>
<trkpt lat="44.466671" lon="8.653905">
<time>2020-12-27T13:17:58Z</time>
</trkpt>
<trkpt lat="44.466579" lon="8.653862">
<time>2020-12-27T13:18:32Z</time>
</trkpt>
<trkpt lat="44.466585" lon="8.65375">
<time>2020-12-27T13:18:41Z</time>
</trkpt>
<trkpt lat="44.466595" lon="8.653744">
<time>2020-12-27T13:18:43Z</time>
</trkpt>
<trkpt lat="44.466606" lon="8.653747">
<time>2020-12-27T13:18:47Z</time>
</trkpt>
<trkpt lat="44.466625" lon="8.653731">
<time>2020-12-27T13:18:52Z</time>
</trkpt>
<trkpt lat="44.466642" lon="8.653726">
<time>2020-12-27T13:18:55Z</time>
</trkpt>
<trkpt lat="44.466675" lon="8.653696">
<time>2020-12-27T13:19:04Z</time>
</trkpt>
<trkpt lat="44.466677" lon="8.65369">
<time>2020-12-27T13:19:06Z</time>
</trkpt>
<trkpt lat="44.466647" lon="8.653661">
<time>2020-12-27T13:19:13Z</time>
</trkpt>
<trkpt lat="44.466642" lon="8.653646">
<time>2020-12-27T13:19:29Z</time>
</trkpt>
<trkpt lat="44.466639" lon="8.653638">
<time>2020-12-27T13:19:31Z</time>
</trkpt>
<trkpt lat="44.46662" lon="8.65358">
<time>2020-12-27T13:19:40Z</time>
</trkpt>
<trkpt lat="44.466602" lon="8.653573">
<time>2020-12-27T13:19:43Z</time>
</trkpt>
<trkpt lat="44.466592" lon="8.653573">
<time>2020-12-27T13:19:45Z</time>
</trkpt>
<trkpt lat="44.466623" lon="8.65357">
<time>2020-12-27T13:20:11Z</time>
</trkpt>
<trkpt lat="44.466628" lon="8.653516">
<time>2020-12-27T13:20:16Z</time>
</trkpt>
<trkpt lat="44.466634" lon="8.653492">
<time>2020-12-27T13:20:19Z</time>
</trkpt>
<trkpt lat="44.466637" lon="8.65349">
<time>2020-12-27T13:20:22Z</time>
</trkpt>
<trkpt lat="44.466638" lon="8.653493">
<time>2020-12-27T13:20:24Z</time>
</trkpt>
<trkpt lat="44.46663" lon="8.653491">
<time>2020-12-27T13:20:28Z</time>
</trkpt>
<trkpt lat="44.466627" lon="8.653486">
<time>2020-12-27T13:20:37Z</time>
</trkpt>
<trkpt lat="44.466634" lon="8.653488">
<time>2020-12-27T13:20:49Z</time>
</trkpt>
<trkpt lat="44.466632" lon="8.653494">
<time>2020-12-27T13:20:52Z</time>
</trkpt>
<trkpt lat="44.466638" lon="8.653499">
<time>2020-12-27T13:20:57Z</time>
</trkpt>
<trkpt lat="44.466646" lon="8.653497">
<time>2020-12-27T13:21:00Z</time>
</trkpt>
<trkpt lat="44.466658" lon="8.653508">
<time>2020-12-27T13:21:06Z</time>
</trkpt>
<trkpt lat="44.466659" lon="8.653508">
<time>2020-12-27T13:21:07Z</time>
</trkpt>
<trkpt lat="44.46666" lon="8.653508">
<time>2020-12-27T13:21:08Z</time>
</trkpt>
<trkpt lat="44.466659" lon="8.653501">
<time>2020-12-27T13:21:12Z</time>
</trkpt>
<trkpt lat="44.466648" lon="8.653495">
<time>2020-12-27T13:21:19Z</time>
</trkpt>
<trkpt lat="44.466667" lon="8.653508">
<time>2020-12-27T13:21:21Z</time>
</trkpt>
<trkpt lat="44.466675" lon="8.653521">
<time>2020-12-27T13:21:23Z</time>
</trkpt>
<trkpt lat="44.466669" lon="8.653552">
<time>2020-12-27T13:21:26Z</time>
</trkpt>
<trkpt lat="44.466666" lon="8.653566">
<time>2020-12-27T13:21:27Z</time>
</trkpt>
<trkpt lat="44.466657" lon="8.653593">
<time>2020-12-27T13:21:29Z</time>
</trkpt>
<trkpt lat="44.466653" lon="8.653619">
<time>2020-12-27T13:21:32Z</time>
</trkpt>
<trkpt lat="44.466652" lon="8.653646">
<time>2020-12-27T13:21:34Z</time>
</trkpt>
<trkpt lat="44.466653" lon="8.653687">
<time>2020-12-27T13:21:37Z</time>
</trkpt>
<trkpt lat="44.466652" lon="8.653769">
<time>2020-12-27T13:21:42Z</time>
</trkpt>
<trkpt lat="44.466658" lon="8.653818">
<time>2020-12-27T13:21:46Z</time>
</trkpt>
<trkpt lat="44.466638" lon="8.653841">
<time>2020-12-27T13:21:50Z</time>
</trkpt>
<trkpt lat="44.466628" lon="8.65385">
<time>2020-12-27T13:21:54Z</time>
</trkpt>
<trkpt lat="44.466623" lon="8.653856">
<time>2020-12-27T13:21:55Z</time>
</trkpt>
<trkpt lat="44.466633" lon="8.653906">
<time>2020-12-27T13:21:59Z</time>
</trkpt>
<trkpt lat="44.466634" lon="8.653916">
<time>2020-12-27T13:22:02Z</time>
</trkpt>
<trkpt lat="44.466464" lon="8.653999">
<time>2020-12-27T13:22:45Z</time>
</trkpt>
<trkpt lat="44.466458" lon="8.653996">
<time>2020-12-27T13:22:46Z</time>
</trkpt>
<trkpt lat="44.46637" lon="8.653982">
<time>2020-12-27T13:23:00Z</time>
</trkpt>
<trkpt lat="44.466353" lon="8.653968">
<time>2020-12-27T13:23:03Z</time>
</trkpt>
<trkpt lat="44.466328" lon="8.653966">
<time>2020-12-27T13:23:11Z</time>
</trkpt>
<trkpt lat="44.466294" lon="8.654001">
<time>2020-12-27T13:23:22Z</time>
</trkpt>
<trkpt lat="44.466297" lon="8.653999">
<time>2020-12-27T13:23:25Z</time>
</trkpt>
<trkpt lat="44.466298" lon="8.653979">
<time>2020-12-27T13:23:33Z</time>
</trkpt>
<trkpt lat="44.46629" lon="8.653971">
<time>2020-12-27T13:23:35Z</time>
</trkpt>
<trkpt lat="44.46629" lon="8.653954">
<time>2020-12-27T13:23:40Z</time>
</trkpt>
<trkpt lat="44.466234" lon="8.653876">
<time>2020-12-27T13:23:51Z</time>
</trkpt>
<trkpt lat="44.46621" lon="8.65384">
<time>2020-12-27T13:23:59Z</time>
</trkpt>
<trkpt lat="44.466227" lon="8.653851">
<time>2020-12-27T13:24:08Z</time>
</trkpt>
<trkpt lat="44.466196" lon="8.65385">
<time>2020-12-27T13:24:14Z</time>
</trkpt>
<trkpt lat="44.46615" lon="8.653841">
<time>2020-12-27T13:24:25Z</time>
</trkpt>
<trkpt lat="44.466113" lon="8.653869">
<time>2020-12-27T13:24:30Z</time>
</trkpt>
<trkpt lat="44.466059" lon="8.653905">
<time>2020-12-27T13:24:35Z</time>
</trkpt>
<trkpt lat="44.465948" lon="8.653917">
<time>2020-12-27T13:24:47Z</time>
</trkpt>
<trkpt lat="44.465768" lon="8.653864">
<time>2020-12-27T13:25:16Z</time>
</trkpt>
<trkpt lat="44.465621" lon="8.654001">
<time>2020-12-27T13:25:40Z</time>
</trkpt>
<trkpt lat="44.465615" lon="8.654027">
<time>2020-12-27T13:25:42Z</time>
</trkpt>
<trkpt lat="44.465605" lon="8.654066">
<time>2020-12-27T13:25:45Z</time>
</trkpt>
<trkpt lat="44.465579" lon="8.654159">
<time>2020-12-27T13:25:56Z</time>
</trkpt>
<trkpt lat="44.465573" lon="8.654193">
<time>2020-12-27T13:26:00Z</time>
</trkpt>
<trkpt lat="44.465581" lon="8.654222">
<time>2020-12-27T13:26:03Z</time>
</trkpt>
<trkpt lat="44.465583" lon="8.654262">
<time>2020-12-27T13:26:07Z</time>
</trkpt>
<trkpt lat="44.465581" lon="8.654271">
<time>2020-12-27T13:26:08Z</time>
</trkpt>
<trkpt lat="44.46557" lon="8.65428">
<time>2020-12-27T13:26:10Z</time>
</trkpt>
<trkpt lat="44.465555" lon="8.654423">
<time>2020-12-27T13:26:24Z</time>
</trkpt>
<trkpt lat="44.465501" lon="8.654492">
<time>2020-12-27T13:26:34Z</time>
</trkpt>
<trkpt lat="44.465487" lon="8.654505">
<time>2020-12-27T13:26:36Z</time>
</trkpt>
<trkpt lat="44.465474" lon="8.654523">
<time>2020-12-27T13:26:38Z</time>
</trkpt>
<trkpt lat="44.465465" lon="8.654546">
<time>2020-12-27T13:26:41Z</time>
</trkpt>
<trkpt lat="44.465534" lon="8.654714">
<time>2020-12-27T13:27:14Z</time>
</trkpt>
<trkpt lat="44.465507" lon="8.654827">
<time>2020-12-27T13:27:35Z</time>
</trkpt>
<trkpt lat="44.465509" lon="8.654852">
<time>2020-12-27T13:27:37Z</time>
</trkpt>
<trkpt lat="44.465513" lon="8.654945">
<time>2020-12-27T13:27:46Z</time>
</trkpt>
<trkpt lat="44.465386" lon="8.655093">
<time>2020-12-27T13:28:00Z</time>
</trkpt>
<trkpt lat="44.465193" lon="8.655058">
<time>2020-12-27T13:28:09Z</time>
</trkpt>
<trkpt lat="44.465001" lon="8.655038">
<time>2020-12-27T13:28:19Z</time>
</trkpt>
<trkpt lat="44.464875" lon="8.655023">
<time>2020-12-27T13:28:24Z</time>
</trkpt>
<trkpt lat="44.464755" lon="8.654961">
<time>2020-12-27T13:28:30Z</time>
</trkpt>
<trkpt lat="44.464682" lon="8.654911">
<time>2020-12-27T13:28:38Z</time>
</trkpt>
<trkpt lat="44.464654" lon="8.654931">
<time>2020-12-27T13:28:44Z</time>
</trkpt>
<trkpt lat="44.46463" lon="8.654947">
<time>2020-12-27T13:28:46Z</time>
</trkpt>
<trkpt lat="44.464481" lon="8.655115">
<time>2020-12-27T13:28:58Z</time>
</trkpt>
<trkpt lat="44.464425" lon="8.655128">
<time>2020-12-27T13:29:02Z</time>
</trkpt>
<trkpt lat="44.464289" lon="8.655338">
<time>2020-12-27T13:29:12Z</time>
</trkpt>
<trkpt lat="44.464145" lon="8.655483">
<time>2020-12-27T13:29:21Z</time>
</trkpt>
<trkpt lat="44.464107" lon="8.655513">
<time>2020-12-27T13:29:25Z</time>
</trkpt>
<trkpt lat="44.46408" lon="8.6558">
<time>2020-12-27T13:29:33Z</time>
</trkpt>
<trkpt lat="44.46406" lon="8.656054">
<time>2020-12-27T13:29:42Z</time>
</trkpt>
<trkpt lat="44.464034" lon="8.656327">
<time>2020-12-27T13:29:49Z</time>
</trkpt>
<trkpt lat="44.463974" lon="8.656544">
<time>2020-12-27T13:29:55Z</time>
</trkpt>
<trkpt lat="44.463858" lon="8.656776">
<time>2020-12-27T13:30:02Z</time>
</trkpt>
<trkpt lat="44.463743" lon="8.656991">
<time>2020-12-27T13:30:09Z</time>
</trkpt>
<trkpt lat="44.463628" lon="8.657202">
<time>2020-12-27T13:30:16Z</time>
</trkpt>
<trkpt lat="44.463525" lon="8.65741">
<time>2020-12-27T13:30:23Z</time>
</trkpt>
<trkpt lat="44.463469" lon="8.657572">
<time>2020-12-27T13:30:28Z</time>
</trkpt>
<trkpt lat="44.46334" lon="8.657768">
<time>2020-12-27T13:30:36Z</time>
</trkpt>
<trkpt lat="44.463168" lon="8.657834">
<time>2020-12-27T13:30:46Z</time>
</trkpt>
<trkpt lat="44.462976" lon="8.657854">
<time>2020-12-27T13:30:55Z</time>
</trkpt>
<trkpt lat="44.462811" lon="8.657981">
<time>2020-12-27T13:31:00Z</time>
</trkpt>
<trkpt lat="44.46265" lon="8.658134">
<time>2020-12-27T13:31:04Z</time>
</trkpt>
<trkpt lat="44.462547" lon="8.65834">
<time>2020-12-27T13:31:10Z</time>
</trkpt>
<trkpt lat="44.462536" lon="8.658599">
<time>2020-12-27T13:31:17Z</time>
</trkpt>
<trkpt lat="44.462546" lon="8.658879">
<time>2020-12-27T13:31:25Z</time>
</trkpt>
<trkpt lat="44.462557" lon="8.659166">
<time>2020-12-27T13:31:33Z</time>
</trkpt>
<trkpt lat="44.462572" lon="8.659437">
<time>2020-12-27T13:31:40Z</time>
</trkpt>
<trkpt lat="44.462614" lon="8.65971">
<time>2020-12-27T13:31:47Z</time>
</trkpt>
<trkpt lat="44.46266" lon="8.659968">
<time>2020-12-27T13:31:54Z</time>
</trkpt>
<trkpt lat="44.462736" lon="8.660213">
<time>2020-12-27T13:32:01Z</time>
</trkpt>
<trkpt lat="44.462725" lon="8.660505">
<time>2020-12-27T13:32:09Z</time>
</trkpt>
<trkpt lat="44.462623" lon="8.660741">
<time>2020-12-27T13:32:16Z</time>
</trkpt>
<trkpt lat="44.462486" lon="8.660918">
<time>2020-12-27T13:32:23Z</time>
</trkpt>
<trkpt lat="44.462311" lon="8.661034">
<time>2020-12-27T13:32:30Z</time>
</trkpt>
<trkpt lat="44.462173" lon="8.661196">
<time>2020-12-27T13:32:37Z</time>
</trkpt>
<trkpt lat="44.462103" lon="8.661447">
<time>2020-12-27T13:32:43Z</time>
</trkpt>
<trkpt lat="44.462144" lon="8.66171">
<time>2020-12-27T13:32:50Z</time>
</trkpt>
<trkpt lat="44.462212" lon="8.661944">
<time>2020-12-27T13:32:56Z</time>
</trkpt>
<trkpt lat="44.462279" lon="8.662204">
<time>2020-12-27T13:33:03Z</time>
</trkpt>
<trkpt lat="44.462296" lon="8.662493">
<time>2020-12-27T13:33:10Z</time>
</trkpt>
<trkpt lat="44.462273" lon="8.662755">
<time>2020-12-27T13:33:17Z</time>
</trkpt>
<trkpt lat="44.462214" lon="8.662994">
<time>2020-12-27T13:33:25Z</time>
</trkpt>
<trkpt lat="44.462126" lon="8.66324">
<time>2020-12-27T13:33:32Z</time>
</trkpt>
<trkpt lat="44.462042" lon="8.663505">
<time>2020-12-27T13:33:39Z</time>
</trkpt>
<trkpt lat="44.461966" lon="8.663764">
<time>2020-12-27T13:33:46Z</time>
</trkpt>
<trkpt lat="44.461893" lon="8.664011">
<time>2020-12-27T13:33:53Z</time>
</trkpt>
<trkpt lat="44.461813" lon="8.664254">
<time>2020-12-27T13:34:00Z</time>
</trkpt>
<trkpt lat="44.461726" lon="8.664485">
<time>2020-12-27T13:34:07Z</time>
</trkpt>
<trkpt lat="44.461666" lon="8.66473">
<time>2020-12-27T13:34:14Z</time>
</trkpt>
<trkpt lat="44.46165" lon="8.664983">
<time>2020-12-27T13:34:21Z</time>
</trkpt>
<trkpt lat="44.461638" lon="8.665258">
<time>2020-12-27T13:34:29Z</time>
</trkpt>
<trkpt lat="44.461636" lon="8.665546">
<time>2020-12-27T13:34:37Z</time>
</trkpt>
<trkpt lat="44.46164" lon="8.665806">
<time>2020-12-27T13:34:44Z</time>
</trkpt>
<trkpt lat="44.461633" lon="8.666064">
<time>2020-12-27T13:34:51Z</time>
</trkpt>
<trkpt lat="44.461651" lon="8.666315">
<time>2020-12-27T13:34:58Z</time>
</trkpt>
<trkpt lat="44.461643" lon="8.666596">
<time>2020-12-27T13:35:06Z</time>
</trkpt>
<trkpt lat="44.461637" lon="8.666852">
<time>2020-12-27T13:35:13Z</time>
</trkpt>
<trkpt lat="44.461661" lon="8.667106">
<time>2020-12-27T13:35:20Z</time>
</trkpt>
<trkpt lat="44.461674" lon="8.66736">
<time>2020-12-27T13:35:27Z</time>
</trkpt>
<trkpt lat="44.461773" lon="8.667591">
<time>2020-12-27T13:35:35Z</time>
</trkpt>
<trkpt lat="44.46194" lon="8.667729">
<time>2020-12-27T13:35:44Z</time>
</trkpt>
<trkpt lat="44.462132" lon="8.667747">
<time>2020-12-27T13:35:51Z</time>
</trkpt>
<trkpt lat="44.462325" lon="8.667711">
<time>2020-12-27T13:35:59Z</time>
</trkpt>
<trkpt lat="44.46249" lon="8.667697">
<time>2020-12-27T13:36:07Z</time>
</trkpt>
<trkpt lat="44.46268" lon="8.667596">
<time>2020-12-27T13:36:19Z</time>
</trkpt>
<trkpt lat="44.462847" lon="8.667484">
<time>2020-12-27T13:36:27Z</time>
</trkpt>
<trkpt lat="44.463028" lon="8.667357">
<time>2020-12-27T13:36:36Z</time>
</trkpt>
<trkpt lat="44.463229" lon="8.667301">
<time>2020-12-27T13:36:43Z</time>
</trkpt>
<trkpt lat="44.463415" lon="8.667243">
<time>2020-12-27T13:36:51Z</time>
</trkpt>
<trkpt lat="44.463605" lon="8.667179">
<time>2020-12-27T13:36:59Z</time>
</trkpt>
<trkpt lat="44.463783" lon="8.667114">
<time>2020-12-27T13:37:08Z</time>
</trkpt>
<trkpt lat="44.463997" lon="8.667049">
<time>2020-12-27T13:37:15Z</time>
</trkpt>
<trkpt lat="44.464181" lon="8.66702">
<time>2020-12-27T13:37:21Z</time>
</trkpt>
<trkpt lat="44.464366" lon="8.66696">
<time>2020-12-27T13:37:27Z</time>
</trkpt>
<trkpt lat="44.46456" lon="8.666911">
<time>2020-12-27T13:37:33Z</time>
</trkpt>
<trkpt lat="44.464762" lon="8.666844">
<time>2020-12-27T13:37:40Z</time>
</trkpt>
<trkpt lat="44.464947" lon="8.666816">
<time>2020-12-27T13:37:47Z</time>
</trkpt>
<trkpt lat="44.465062" lon="8.666838">
<time>2020-12-27T13:37:53Z</time>
</trkpt>
<trkpt lat="44.465104" lon="8.66684">
<time>2020-12-27T13:37:56Z</time>
</trkpt>
<trkpt lat="44.465154" lon="8.666824">
<time>2020-12-27T13:38:00Z</time>
</trkpt>
<trkpt lat="44.465212" lon="8.666769">
<time>2020-12-27T13:38:14Z</time>
</trkpt>
<trkpt lat="44.465215" lon="8.666777">
<time>2020-12-27T13:38:16Z</time>
</trkpt>
<trkpt lat="44.465222" lon="8.666786">
<time>2020-12-27T13:38:18Z</time>
</trkpt>
<trkpt lat="44.465222" lon="8.666775">
<time>2020-12-27T13:38:20Z</time>
</trkpt>
<trkpt lat="44.465235" lon="8.666748">
<time>2020-12-27T13:38:24Z</time>
</trkpt>
<trkpt lat="44.465243" lon="8.666731">
<time>2020-12-27T13:38:26Z</time>
</trkpt>
<trkpt lat="44.465339" lon="8.666684">
<time>2020-12-27T13:38:41Z</time>
</trkpt>
<trkpt lat="44.465381" lon="8.666648">
<time>2020-12-27T13:38:49Z</time>
</trkpt>
<trkpt lat="44.465551" lon="8.666587">
<time>2020-12-27T13:39:00Z</time>
</trkpt>
<trkpt lat="44.46574" lon="8.666584">
<time>2020-12-27T13:39:09Z</time>
</trkpt>
<trkpt lat="44.465927" lon="8.666518">
<time>2020-12-27T13:39:19Z</time>
</trkpt>
<trkpt lat="44.465968" lon="8.666474">
<time>2020-12-27T13:39:22Z</time>
</trkpt>
<trkpt lat="44.46611" lon="8.666317">
<time>2020-12-27T13:39:33Z</time>
</trkpt>
<trkpt lat="44.466229" lon="8.666253">
<time>2020-12-27T13:39:42Z</time>
</trkpt>
<trkpt lat="44.466267" lon="8.666195">
<time>2020-12-27T13:39:48Z</time>
</trkpt>
<trkpt lat="44.466323" lon="8.666127">
<time>2020-12-27T13:39:52Z</time>
</trkpt>
<trkpt lat="44.466376" lon="8.66605">
<time>2020-12-27T13:39:56Z</time>
</trkpt>
<trkpt lat="44.466464" lon="8.666013">
<time>2020-12-27T13:40:01Z</time>
</trkpt>
<trkpt lat="44.466642" lon="8.665957">
<time>2020-12-27T13:40:15Z</time>
</trkpt>
<trkpt lat="44.466804" lon="8.665868">
<time>2020-12-27T13:40:32Z</time>
</trkpt>
<trkpt lat="44.466816" lon="8.665859">
<time>2020-12-27T13:40:34Z</time>
</trkpt>
<trkpt lat="44.466827" lon="8.665859">
<time>2020-12-27T13:40:37Z</time>
</trkpt>
<trkpt lat="44.466843" lon="8.665857">
<time>2020-12-27T13:40:39Z</time>
</trkpt>
<trkpt lat="44.466872" lon="8.665876">
<time>2020-12-27T13:40:42Z</time>
</trkpt>
<trkpt lat="44.467042" lon="8.665796">
<time>2020-12-27T13:40:57Z</time>
</trkpt>
<trkpt lat="44.467048" lon="8.665791">
<time>2020-12-27T13:40:58Z</time>
</trkpt>
<trkpt lat="44.467091" lon="8.665778">
<time>2020-12-27T13:41:02Z</time>
</trkpt>
<trkpt lat="44.467101" lon="8.665774">
<time>2020-12-27T13:41:04Z</time>
</trkpt>
<trkpt lat="44.467139" lon="8.665723">
<time>2020-12-27T13:41:11Z</time>
</trkpt>
<trkpt lat="44.467144" lon="8.665684">
<time>2020-12-27T13:41:15Z</time>
</trkpt>
<trkpt lat="44.467158" lon="8.665675">
<time>2020-12-27T13:41:18Z</time>
</trkpt>
<trkpt lat="44.467172" lon="8.665635">
<time>2020-12-27T13:41:24Z</time>
</trkpt>
<trkpt lat="44.467193" lon="8.665617">
<time>2020-12-27T13:41:27Z</time>
</trkpt>
<trkpt lat="44.467283" lon="8.665548">
<time>2020-12-27T13:41:39Z</time>
</trkpt>
<trkpt lat="44.467309" lon="8.665548">
<time>2020-12-27T13:41:41Z</time>
</trkpt>
<trkpt lat="44.467327" lon="8.665544">
<time>2020-12-27T13:41:43Z</time>
</trkpt>
<trkpt lat="44.467455" lon="8.665573">
<time>2020-12-27T13:41:55Z</time>
</trkpt>
<trkpt lat="44.467471" lon="8.665565">
<time>2020-12-27T13:41:57Z</time>
</trkpt>
<trkpt lat="44.467487" lon="8.665525">
<time>2020-12-27T13:42:01Z</time>
</trkpt>
<trkpt lat="44.467445" lon="8.665417">
<time>2020-12-27T13:42:10Z</time>
</trkpt>
<trkpt lat="44.467443" lon="8.665404">
<time>2020-12-27T13:42:11Z</time>
</trkpt>
<trkpt lat="44.467447" lon="8.665392">
<time>2020-12-27T13:42:13Z</time>
</trkpt>
<trkpt lat="44.467464" lon="8.66539">
<time>2020-12-27T13:42:18Z</time>
</trkpt>
<trkpt lat="44.467438" lon="8.665419">
<time>2020-12-27T13:42:25Z</time>
</trkpt>
<trkpt lat="44.467407" lon="8.665431">
<time>2020-12-27T13:42:28Z</time>
</trkpt>
<trkpt lat="44.467382" lon="8.665439">
<time>2020-12-27T13:42:31Z</time>
</trkpt>
<trkpt lat="44.467358" lon="8.665464">
<time>2020-12-27T13:42:34Z</time>
</trkpt>
<trkpt lat="44.467347" lon="8.66548">
<time>2020-12-27T13:42:36Z</time>
</trkpt>
<trkpt lat="44.467338" lon="8.665495">
<time>2020-12-27T13:42:39Z</time>
</trkpt>
<trkpt lat="44.467333" lon="8.665496">
<time>2020-12-27T13:42:40Z</time>
</trkpt>
<trkpt lat="44.4673" lon="8.66551">
<time>2020-12-27T13:42:46Z</time>
</trkpt>
<trkpt lat="44.467275" lon="8.665519">
<time>2020-12-27T13:42:50Z</time>
</trkpt>
<trkpt lat="44.46714" lon="8.665631">
<time>2020-12-27T13:43:08Z</time>
</trkpt>
<trkpt lat="44.46714" lon="8.665644">
<time>2020-12-27T13:43:09Z</time>
</trkpt>
<trkpt lat="44.467141" lon="8.665672">
<time>2020-12-27T13:43:11Z</time>
</trkpt>
<trkpt lat="44.467136" lon="8.66571">
<time>2020-12-27T13:43:15Z</time>
</trkpt>
<trkpt lat="44.467136" lon="8.665716">
<time>2020-12-27T13:43:16Z</time>
</trkpt>
<trkpt lat="44.467115" lon="8.665731">
<time>2020-12-27T13:43:21Z</time>
</trkpt>
<trkpt lat="44.467114" lon="8.665734">
<time>2020-12-27T13:43:22Z</time>
</trkpt>
<trkpt lat="44.467113" lon="8.665745">
<time>2020-12-27T13:43:24Z</time>
</trkpt>
<trkpt lat="44.467015" lon="8.665815">
<time>2020-12-27T13:43:38Z</time>
</trkpt>
<trkpt lat="44.466992" lon="8.665821">
<time>2020-12-27T13:43:41Z</time>
</trkpt>
<trkpt lat="44.466981" lon="8.665823">
<time>2020-12-27T13:43:43Z</time>
</trkpt>
<trkpt lat="44.466936" lon="8.665837">
<time>2020-12-27T13:43:49Z</time>
</trkpt>
<trkpt lat="44.466931" lon="8.665841">
<time>2020-12-27T13:43:50Z</time>
</trkpt>
<trkpt lat="44.466919" lon="8.665837">
<time>2020-12-27T13:43:52Z</time>
</trkpt>
<trkpt lat="44.466885" lon="8.665827">
<time>2020-12-27T13:43:56Z</time>
</trkpt>
<trkpt lat="44.466871" lon="8.665824">
<time>2020-12-27T13:43:58Z</time>
</trkpt>
<trkpt lat="44.466839" lon="8.665848">
<time>2020-12-27T13:44:03Z</time>
</trkpt>
<trkpt lat="44.466829" lon="8.665847">
<time>2020-12-27T13:44:04Z</time>
</trkpt>
<trkpt lat="44.466796" lon="8.665844">
<time>2020-12-27T13:44:08Z</time>
</trkpt>
<trkpt lat="44.466766" lon="8.665856">
<time>2020-12-27T13:44:11Z</time>
</trkpt>
<trkpt lat="44.466748" lon="8.665861">
<time>2020-12-27T13:44:13Z</time>
</trkpt>
<trkpt lat="44.466718" lon="8.665858">
<time>2020-12-27T13:44:17Z</time>
</trkpt>
<trkpt lat="44.466696" lon="8.665867">
<time>2020-12-27T13:44:21Z</time>
</trkpt>
<trkpt lat="44.466687" lon="8.665872">
<time>2020-12-27T13:44:22Z</time>
</trkpt>
<trkpt lat="44.466679" lon="8.665876">
<time>2020-12-27T13:44:23Z</time>
</trkpt>
<trkpt lat="44.466629" lon="8.665892">
<time>2020-12-27T13:44:29Z</time>
</trkpt>
<trkpt lat="44.466609" lon="8.665896">
<time>2020-12-27T13:44:31Z</time>
</trkpt>
<trkpt lat="44.466575" lon="8.665893">
<time>2020-12-27T13:44:35Z</time>
</trkpt>
<trkpt lat="44.466546" lon="8.665885">
<time>2020-12-27T13:44:39Z</time>
</trkpt>
<trkpt lat="44.46651" lon="8.665871">
<time>2020-12-27T13:44:44Z</time>
</trkpt>
<trkpt lat="44.466473" lon="8.665843">
<time>2020-12-27T13:44:49Z</time>
</trkpt>
<trkpt lat="44.466427" lon="8.665769">
<time>2020-12-27T13:44:53Z</time>
</trkpt>
<trkpt lat="44.466388" lon="8.665713">
<time>2020-12-27T13:44:57Z</time>
</trkpt>
<trkpt lat="44.466312" lon="8.665584">
<time>2020-12-27T13:45:03Z</time>
</trkpt>
<trkpt lat="44.466254" lon="8.6655">
<time>2020-12-27T13:45:08Z</time>
</trkpt>
<trkpt lat="44.46614" lon="8.665369">
<time>2020-12-27T13:45:17Z</time>
</trkpt>
<trkpt lat="44.466065" lon="8.665219">
<time>2020-12-27T13:45:27Z</time>
</trkpt>
<trkpt lat="44.46606" lon="8.665176">
<time>2020-12-27T13:45:30Z</time>
</trkpt>
<trkpt lat="44.465955" lon="8.664971">
<time>2020-12-27T13:45:42Z</time>
</trkpt>
<trkpt lat="44.465912" lon="8.66486">
<time>2020-12-27T13:45:50Z</time>
</trkpt>
<trkpt lat="44.465897" lon="8.664837">
<time>2020-12-27T13:45:52Z</time>
</trkpt>
<trkpt lat="44.465872" lon="8.664786">
<time>2020-12-27T13:45:56Z</time>
</trkpt>
<trkpt lat="44.465877" lon="8.664771">
<time>2020-12-27T13:45:59Z</time>
</trkpt>
<trkpt lat="44.465862" lon="8.664767">
<time>2020-12-27T13:46:01Z</time>
</trkpt>
<trkpt lat="44.46582" lon="8.664775">
<time>2020-12-27T13:46:06Z</time>
</trkpt>
<trkpt lat="44.465821" lon="8.664781">
<time>2020-12-27T13:46:08Z</time>
</trkpt>
<trkpt lat="44.465838" lon="8.664768">
<time>2020-12-27T13:46:15Z</time>
</trkpt>
<trkpt lat="44.465833" lon="8.664775">
<time>2020-12-27T13:46:19Z</time>
</trkpt>
<trkpt lat="44.465835" lon="8.66478">
<time>2020-12-27T13:46:21Z</time>
</trkpt>
<trkpt lat="44.465798" lon="8.664764">
<time>2020-12-27T13:46:29Z</time>
</trkpt>
<trkpt lat="44.465752" lon="8.664836">
<time>2020-12-27T13:46:41Z</time>
</trkpt>
<trkpt lat="44.465643" lon="8.664743">
<time>2020-12-27T13:46:49Z</time>
</trkpt>
<trkpt lat="44.465598" lon="8.664733">
<time>2020-12-27T13:46:52Z</time>
</trkpt>
<trkpt lat="44.465579" lon="8.664719">
<time>2020-12-27T13:46:55Z</time>
</trkpt>
<trkpt lat="44.465559" lon="8.664708">
<time>2020-12-27T13:46:57Z</time>
</trkpt>
<trkpt lat="44.465516" lon="8.664657">
<time>2020-12-27T13:47:03Z</time>
</trkpt>
<trkpt lat="44.46546" lon="8.664575">
<time>2020-12-27T13:47:09Z</time>
</trkpt>
<trkpt lat="44.465285" lon="8.664471">
<time>2020-12-27T13:47:19Z</time>
</trkpt>
<trkpt lat="44.465234" lon="8.664441">
<time>2020-12-27T13:47:22Z</time>
</trkpt>
<trkpt lat="44.465175" lon="8.664421">
<time>2020-12-27T13:47:27Z</time>
</trkpt>
<trkpt lat="44.465171" lon="8.66442">
<time>2020-12-27T13:47:28Z</time>
</trkpt>
<trkpt lat="44.46516" lon="8.664408">
<time>2020-12-27T13:47:36Z</time>
</trkpt>
<trkpt lat="44.465126" lon="8.664383">
<time>2020-12-27T13:47:42Z</time>
</trkpt>
<trkpt lat="44.465115" lon="8.664352">
<time>2020-12-27T13:47:47Z</time>
</trkpt>
<trkpt lat="44.46512" lon="8.664341">
<time>2020-12-27T13:47:49Z</time>
</trkpt>
<trkpt lat="44.465071" lon="8.664238">
<time>2020-12-27T13:47:55Z</time>
</trkpt>
<trkpt lat="44.465017" lon="8.664159">
<time>2020-12-27T13:48:03Z</time>
</trkpt>
<trkpt lat="44.46495" lon="8.66403">
<time>2020-12-27T13:48:18Z</time>
</trkpt>
<trkpt lat="44.464928" lon="8.663982">
<time>2020-12-27T13:48:25Z</time>
</trkpt>
<trkpt lat="44.464928" lon="8.663978">
<time>2020-12-27T13:48:30Z</time>
</trkpt>
<trkpt lat="44.464855" lon="8.663871">
<time>2020-12-27T13:48:44Z</time>
</trkpt>
<trkpt lat="44.464822" lon="8.663819">
<time>2020-12-27T13:48:50Z</time>
</trkpt>
<trkpt lat="44.464767" lon="8.66374">
<time>2020-12-27T13:48:56Z</time>
</trkpt>
<trkpt lat="44.464732" lon="8.663681">
<time>2020-12-27T13:48:59Z</time>
</trkpt>
<trkpt lat="44.464728" lon="8.663645">
<time>2020-12-27T13:49:01Z</time>
</trkpt>
<trkpt lat="44.464722" lon="8.663589">
<time>2020-12-27T13:49:04Z</time>
</trkpt>
<trkpt lat="44.464705" lon="8.663557">
<time>2020-12-27T13:49:06Z</time>
</trkpt>
<trkpt lat="44.464698" lon="8.663532">
<time>2020-12-27T13:49:08Z</time>
</trkpt>
<trkpt lat="44.464602" lon="8.663461">
<time>2020-12-27T13:50:48Z</time>
</trkpt>
<trkpt lat="44.464596" lon="8.663462">
<time>2020-12-27T13:50:49Z</time>
</trkpt>
<trkpt lat="44.46459" lon="8.663469">
<time>2020-12-27T13:50:50Z</time>
</trkpt>
<trkpt lat="44.464578" lon="8.663479">
<time>2020-12-27T13:50:51Z</time>
</trkpt>
<trkpt lat="44.464567" lon="8.663487">
<time>2020-12-27T13:50:52Z</time>
</trkpt>
<trkpt lat="44.464542" lon="8.663504">
<time>2020-12-27T13:50:54Z</time>
</trkpt>
<trkpt lat="44.464529" lon="8.663515">
<time>2020-12-27T13:50:55Z</time>
</trkpt>
<trkpt lat="44.46451" lon="8.663539">
<time>2020-12-27T13:50:57Z</time>
</trkpt>
<trkpt lat="44.464476" lon="8.663582">
<time>2020-12-27T13:51:00Z</time>
</trkpt>
<trkpt lat="44.464442" lon="8.663613">
<time>2020-12-27T13:51:03Z</time>
</trkpt>
<trkpt lat="44.464423" lon="8.663641">
<time>2020-12-27T13:51:05Z</time>
</trkpt>
<trkpt lat="44.464408" lon="8.663678">
<time>2020-12-27T13:51:07Z</time>
</trkpt>
<trkpt lat="44.464384" lon="8.663748">
<time>2020-12-27T13:51:10Z</time>
</trkpt>
<trkpt lat="44.464359" lon="8.663785">
<time>2020-12-27T13:51:12Z</time>
</trkpt>
<trkpt lat="44.464333" lon="8.663822">
<time>2020-12-27T13:51:14Z</time>
</trkpt>
<trkpt lat="44.464299" lon="8.663876">
<time>2020-12-27T13:51:17Z</time>
</trkpt>
<trkpt lat="44.464272" lon="8.663894">
<time>2020-12-27T13:51:20Z</time>
</trkpt>
<trkpt lat="44.464268" lon="8.663899">
<time>2020-12-27T13:51:21Z</time>
</trkpt>
<trkpt lat="44.464252" lon="8.663957">
<time>2020-12-27T13:51:25Z</time>
</trkpt>
<trkpt lat="44.464184" lon="8.664028">
<time>2020-12-27T13:51:30Z</time>
</trkpt>
<trkpt lat="44.46416" lon="8.664052">
<time>2020-12-27T13:51:35Z</time>
</trkpt>
<trkpt lat="44.46417" lon="8.664047">
<time>2020-12-27T13:51:38Z</time>
</trkpt>
<trkpt lat="44.464203" lon="8.664296">
<time>2020-12-27T13:51:50Z</time>
</trkpt>
<trkpt lat="44.464235" lon="8.664562">
<time>2020-12-27T13:51:59Z</time>
</trkpt>
<trkpt lat="44.464304" lon="8.664805">
<time>2020-12-27T13:52:08Z</time>
</trkpt>
<trkpt lat="44.464376" lon="8.66505">
<time>2020-12-27T13:52:20Z</time>
</trkpt>
<trkpt lat="44.464392" lon="8.665095">
<time>2020-12-27T13:52:21Z</time>
</trkpt>
<trkpt lat="44.464402" lon="8.66521">
<time>2020-12-27T13:52:29Z</time>
</trkpt>
<trkpt lat="44.464339" lon="8.665386">
<time>2020-12-27T13:52:37Z</time>
</trkpt>
<trkpt lat="44.464258" lon="8.665618">
<time>2020-12-27T13:52:47Z</time>
</trkpt>
<trkpt lat="44.464166" lon="8.665861">
<time>2020-12-27T13:52:57Z</time>
</trkpt>
<trkpt lat="44.464153" lon="8.66595">
<time>2020-12-27T13:53:00Z</time>
</trkpt>
<trkpt lat="44.464126" lon="8.66622">
<time>2020-12-27T13:53:14Z</time>
</trkpt>
<trkpt lat="44.463998" lon="8.666411">
<time>2020-12-27T13:53:24Z</time>
</trkpt>
<trkpt lat="44.463897" lon="8.666555">
<time>2020-12-27T13:53:33Z</time>
</trkpt>
<trkpt lat="44.463767" lon="8.666742">
<time>2020-12-27T13:53:42Z</time>
</trkpt>
<trkpt lat="44.463749" lon="8.666781">
<time>2020-12-27T13:53:44Z</time>
</trkpt>
<trkpt lat="44.463733" lon="8.666826">
<time>2020-12-27T13:53:46Z</time>
</trkpt>
<trkpt lat="44.463704" lon="8.666846">
<time>2020-12-27T13:53:48Z</time>
</trkpt>
<trkpt lat="44.463681" lon="8.666849">
<time>2020-12-27T13:53:51Z</time>
</trkpt>
<trkpt lat="44.463659" lon="8.666859">
<time>2020-12-27T13:53:56Z</time>
</trkpt>
<trkpt lat="44.463631" lon="8.666853">
<time>2020-12-27T13:53:59Z</time>
</trkpt>
<trkpt lat="44.463448" lon="8.666752">
<time>2020-12-27T13:54:13Z</time>
</trkpt>
<trkpt lat="44.463389" lon="8.666699">
<time>2020-12-27T13:54:16Z</time>
</trkpt>
<trkpt lat="44.463295" lon="8.66658">
<time>2020-12-27T13:54:22Z</time>
</trkpt>
<trkpt lat="44.463169" lon="8.666393">
<time>2020-12-27T13:54:30Z</time>
</trkpt>
<trkpt lat="44.463128" lon="8.666312">
<time>2020-12-27T13:54:35Z</time>
</trkpt>
<trkpt lat="44.463132" lon="8.66626">
<time>2020-12-27T13:54:42Z</time>
</trkpt>
<trkpt lat="44.463112" lon="8.666156">
<time>2020-12-27T13:54:47Z</time>
</trkpt>
<trkpt lat="44.463104" lon="8.66612">
<time>2020-12-27T13:54:52Z</time>
</trkpt>
<trkpt lat="44.463101" lon="8.666108">
<time>2020-12-27T13:54:53Z</time>
</trkpt>
<trkpt lat="44.463084" lon="8.666076">
<time>2020-12-27T13:54:55Z</time>
</trkpt>
<trkpt lat="44.463032" lon="8.666014">
<time>2020-12-27T13:55:08Z</time>
</trkpt>
<trkpt lat="44.462936" lon="8.665965">
<time>2020-12-27T13:55:16Z</time>
</trkpt>
<trkpt lat="44.462951" lon="8.665948">
<time>2020-12-27T13:55:19Z</time>
</trkpt>
<trkpt lat="44.46296" lon="8.665911">
<time>2020-12-27T13:55:22Z</time>
</trkpt>
<trkpt lat="44.463012" lon="8.665799">
<time>2020-12-27T13:55:28Z</time>
</trkpt>
<trkpt lat="44.463052" lon="8.665789">
<time>2020-12-27T13:55:33Z</time>
</trkpt>
<trkpt lat="44.463104" lon="8.665836">
<time>2020-12-27T13:55:39Z</time>
</trkpt>
<trkpt lat="44.463108" lon="8.665835">
<time>2020-12-27T13:55:42Z</time>
</trkpt>
<trkpt lat="44.463163" lon="8.666002">
<time>2020-12-27T13:55:53Z</time>
</trkpt>
<trkpt lat="44.463172" lon="8.665999">
<time>2020-12-27T13:55:58Z</time>
</trkpt>
<trkpt lat="44.463169" lon="8.666">
<time>2020-12-27T13:56:00Z</time>
</trkpt>
<trkpt lat="44.46317" lon="8.666003">
<time>2020-12-27T13:56:02Z</time>
</trkpt>
<trkpt lat="44.463167" lon="8.666001">
<time>2020-12-27T13:56:06Z</time>
</trkpt>
<trkpt lat="44.463166" lon="8.665999">
<time>2020-12-27T13:56:09Z</time>
</trkpt>
<trkpt lat="44.463163" lon="8.666003">
<time>2020-12-27T13:56:11Z</time>
</trkpt>
<trkpt lat="44.463107" lon="8.666065">
<time>2020-12-27T13:56:17Z</time>
</trkpt>
<trkpt lat="44.462918" lon="8.666167">
<time>2020-12-27T13:56:27Z</time>
</trkpt>
<trkpt lat="44.462864" lon="8.666228">
<time>2020-12-27T13:56:33Z</time>
</trkpt>
<trkpt lat="44.462851" lon="8.666258">
<time>2020-12-27T13:56:36Z</time>
</trkpt>
<trkpt lat="44.462836" lon="8.66632">
<time>2020-12-27T13:56:40Z</time>
</trkpt>
<trkpt lat="44.462846" lon="8.666392">
<time>2020-12-27T13:56:48Z</time>
</trkpt>
<trkpt lat="44.462897" lon="8.666425">
<time>2020-12-27T13:56:51Z</time>
</trkpt>
<trkpt lat="44.46292" lon="8.666453">
<time>2020-12-27T13:56:54Z</time>
</trkpt>
<trkpt lat="44.462945" lon="8.666552">
<time>2020-12-27T13:57:04Z</time>
</trkpt>
<trkpt lat="44.462946" lon="8.666563">
<time>2020-12-27T13:57:07Z</time>
</trkpt>
<trkpt lat="44.4629" lon="8.666621">
<time>2020-12-27T13:57:20Z</time>
</trkpt>
<trkpt lat="44.462853" lon="8.666613">
<time>2020-12-27T13:57:24Z</time>
</trkpt>
<trkpt lat="44.462797" lon="8.666577">
<time>2020-12-27T13:57:29Z</time>
</trkpt>
<trkpt lat="44.462792" lon="8.666575">
<time>2020-12-27T13:57:30Z</time>
</trkpt>
<trkpt lat="44.462785" lon="8.66657">
<time>2020-12-27T13:57:33Z</time>
</trkpt>
<trkpt lat="44.462771" lon="8.666625">
<time>2020-12-27T13:57:40Z</time>
</trkpt>
<trkpt lat="44.462762" lon="8.666678">
<time>2020-12-27T13:57:46Z</time>
</trkpt>
<trkpt lat="44.462767" lon="8.666636">
<time>2020-12-27T13:57:49Z</time>
</trkpt>
<trkpt lat="44.462771" lon="8.666564">
<time>2020-12-27T13:57:51Z</time>
</trkpt>
<trkpt lat="44.462776" lon="8.666488">
<time>2020-12-27T13:57:54Z</time>
</trkpt>
<trkpt lat="44.462773" lon="8.666403">
<time>2020-12-27T13:57:59Z</time>
</trkpt>
<trkpt lat="44.46277" lon="8.666363">
<time>2020-12-27T13:58:03Z</time>
</trkpt>
<trkpt lat="44.462775" lon="8.666293">
<time>2020-12-27T13:58:05Z</time>
</trkpt>
<trkpt lat="44.462773" lon="8.666204">
<time>2020-12-27T13:58:09Z</time>
</trkpt>
<trkpt lat="44.462758" lon="8.666179">
<time>2020-12-27T13:58:12Z</time>
</trkpt>
<trkpt lat="44.462733" lon="8.666173">
<time>2020-12-27T13:58:13Z</time>
</trkpt>
<trkpt lat="44.462697" lon="8.666153">
<time>2020-12-27T13:58:15Z</time>
</trkpt>
<trkpt lat="44.462637" lon="8.666044">
<time>2020-12-27T13:58:20Z</time>
</trkpt>
<trkpt lat="44.462614" lon="8.665916">
<time>2020-12-27T13:58:26Z</time>
</trkpt>
<trkpt lat="44.462657" lon="8.665832">
<time>2020-12-27T13:58:33Z</time>
</trkpt>
<trkpt lat="44.46267" lon="8.665795">
<time>2020-12-27T13:58:36Z</time>
</trkpt>
<trkpt lat="44.462673" lon="8.665763">
<time>2020-12-27T13:58:38Z</time>
</trkpt>
<trkpt lat="44.462594" lon="8.665501">
<time>2020-12-27T13:58:50Z</time>
</trkpt>
<trkpt lat="44.462554" lon="8.665431">
<time>2020-12-27T13:58:54Z</time>
</trkpt>
<trkpt lat="44.462537" lon="8.665351">
<time>2020-12-27T13:59:01Z</time>
</trkpt>
<trkpt lat="44.462527" lon="8.665254">
<time>2020-12-27T13:59:11Z</time>
</trkpt>
<trkpt lat="44.462419" lon="8.66519">
<time>2020-12-27T13:59:25Z</time>
</trkpt>
<trkpt lat="44.462428" lon="8.665186">
<time>2020-12-27T13:59:28Z</time>
</trkpt>
<trkpt lat="44.462449" lon="8.66517">
<time>2020-12-27T13:59:31Z</time>
</trkpt>
<trkpt lat="44.462483" lon="8.66515">
<time>2020-12-27T13:59:34Z</time>
</trkpt>
<trkpt lat="44.462542" lon="8.665121">
<time>2020-12-27T13:59:43Z</time>
</trkpt>
<trkpt lat="44.462604" lon="8.665075">
<time>2020-12-27T13:59:51Z</time>
</trkpt>
<trkpt lat="44.462722" lon="8.664964">
<time>2020-12-27T14:00:07Z</time>
</trkpt>
<trkpt lat="44.462744" lon="8.664988">
<time>2020-12-27T14:00:11Z</time>
</trkpt>
<trkpt lat="44.462804" lon="8.665092">
<time>2020-12-27T14:00:25Z</time>
</trkpt>
<trkpt lat="44.46288" lon="8.665107">
<time>2020-12-27T14:00:37Z</time>
</trkpt>
<trkpt lat="44.463012" lon="8.665288">
<time>2020-12-27T14:00:51Z</time>
</trkpt>
<trkpt lat="44.463118" lon="8.66546">
<time>2020-12-27T14:01:07Z</time>
</trkpt>
<trkpt lat="44.463164" lon="8.665568">
<time>2020-12-27T14:01:14Z</time>
</trkpt>
<trkpt lat="44.463164" lon="8.665588">
<time>2020-12-27T14:01:18Z</time>
</trkpt>
<trkpt lat="44.463057" lon="8.66579">
<time>2020-12-27T14:01:27Z</time>
</trkpt>
<trkpt lat="44.462966" lon="8.666025">
<time>2020-12-27T14:01:36Z</time>
</trkpt>
<trkpt lat="44.46297" lon="8.666146">
<time>2020-12-27T14:01:41Z</time>
</trkpt>
<trkpt lat="44.462956" lon="8.666246">
<time>2020-12-27T14:01:45Z</time>
</trkpt>
<trkpt lat="44.462992" lon="8.666327">
<time>2020-12-27T14:01:49Z</time>
</trkpt>
<trkpt lat="44.462982" lon="8.666573">
<time>2020-12-27T14:01:58Z</time>
</trkpt>
<trkpt lat="44.463004" lon="8.666828">
<time>2020-12-27T14:02:12Z</time>
</trkpt>
<trkpt lat="44.462982" lon="8.666905">
<time>2020-12-27T14:02:15Z</time>
</trkpt>
<trkpt lat="44.462807" lon="8.66701">
<time>2020-12-27T14:02:21Z</time>
</trkpt>
<trkpt lat="44.46277" lon="8.667071">
<time>2020-12-27T14:02:24Z</time>
</trkpt>
<trkpt lat="44.462584" lon="8.667177">
<time>2020-12-27T14:02:31Z</time>
</trkpt>
<trkpt lat="44.462402" lon="8.667238">
<time>2020-12-27T14:02:36Z</time>
</trkpt>
<trkpt lat="44.462215" lon="8.667314">
<time>2020-12-27T14:02:41Z</time>
</trkpt>
<trkpt lat="44.462033" lon="8.667537">
<time>2020-12-27T14:02:47Z</time>
</trkpt>
<trkpt lat="44.461917" lon="8.667782">
<time>2020-12-27T14:02:58Z</time>
</trkpt>
<trkpt lat="44.46182" lon="8.667942">
<time>2020-12-27T14:03:09Z</time>
</trkpt>
<trkpt lat="44.461846" lon="8.668118">
<time>2020-12-27T14:03:16Z</time>
</trkpt>
<trkpt lat="44.461822" lon="8.668326">
<time>2020-12-27T14:03:25Z</time>
</trkpt>
<trkpt lat="44.461742" lon="8.668557">
<time>2020-12-27T14:03:35Z</time>
</trkpt>
<trkpt lat="44.461713" lon="8.668656">
<time>2020-12-27T14:03:40Z</time>
</trkpt>
<trkpt lat="44.461515" lon="8.668691">
<time>2020-12-27T14:03:51Z</time>
</trkpt>
<trkpt lat="44.461323" lon="8.668752">
<time>2020-12-27T14:04:02Z</time>
</trkpt>
<trkpt lat="44.461143" lon="8.668789">
<time>2020-12-27T14:04:10Z</time>
</trkpt>
<trkpt lat="44.460984" lon="8.668924">
<time>2020-12-27T14:04:19Z</time>
</trkpt>
<trkpt lat="44.460953" lon="8.668937">
<time>2020-12-27T14:04:23Z</time>
</trkpt>
<trkpt lat="44.460938" lon="8.668922">
<time>2020-12-27T14:04:26Z</time>
</trkpt>
<trkpt lat="44.460938" lon="8.668922">
<time>2020-12-27T14:04:27Z</time>
</trkpt>
<trkpt lat="44.460938" lon="8.668721">
<time>2020-12-27T14:04:43Z</time>
</trkpt>
<trkpt lat="44.460942" lon="8.668637">
<time>2020-12-27T14:04:48Z</time>
</trkpt>
<trkpt lat="44.4609" lon="8.668465">
<time>2020-12-27T14:04:55Z</time>
</trkpt>
<trkpt lat="44.460805" lon="8.668223">
<time>2020-12-27T14:05:04Z</time>
</trkpt>
<trkpt lat="44.460745" lon="8.668108">
<time>2020-12-27T14:05:12Z</time>
</trkpt>
<trkpt lat="44.460677" lon="8.667876">
<time>2020-12-27T14:05:22Z</time>
</trkpt>
<trkpt lat="44.460639" lon="8.667853">
<time>2020-12-27T14:05:27Z</time>
</trkpt>
<trkpt lat="44.460555" lon="8.667823">
<time>2020-12-27T14:05:41Z</time>
</trkpt>
<trkpt lat="44.460368" lon="8.667815">
<time>2020-12-27T14:05:59Z</time>
</trkpt>
<trkpt lat="44.460214" lon="8.667753">
<time>2020-12-27T14:06:09Z</time>
</trkpt>
<trkpt lat="44.460032" lon="8.667666">
<time>2020-12-27T14:06:18Z</time>
</trkpt>
<trkpt lat="44.459856" lon="8.667574">
<time>2020-12-27T14:06:27Z</time>
</trkpt>
<trkpt lat="44.459672" lon="8.667571">
<time>2020-12-27T14:06:35Z</time>
</trkpt>
<trkpt lat="44.459523" lon="8.66761">
<time>2020-12-27T14:06:45Z</time>
</trkpt>
<trkpt lat="44.459431" lon="8.667558">
<time>2020-12-27T14:06:54Z</time>
</trkpt>
<trkpt lat="44.459421" lon="8.667556">
<time>2020-12-27T14:06:56Z</time>
</trkpt>
<trkpt lat="44.459416" lon="8.667592">
<time>2020-12-27T14:06:58Z</time>
</trkpt>
<trkpt lat="44.459417" lon="8.667606">
<time>2020-12-27T14:07:00Z</time>
</trkpt>
<trkpt lat="44.459391" lon="8.667737">
<time>2020-12-27T14:07:06Z</time>
</trkpt>
<trkpt lat="44.459294" lon="8.66791">
<time>2020-12-27T14:07:16Z</time>
</trkpt>
<trkpt lat="44.459206" lon="8.668144">
<time>2020-12-27T14:07:28Z</time>
</trkpt>
<trkpt lat="44.45914" lon="8.66838">
<time>2020-12-27T14:07:43Z</time>
</trkpt>
<trkpt lat="44.459118" lon="8.668507">
<time>2020-12-27T14:07:54Z</time>
</trkpt>
<trkpt lat="44.459107" lon="8.66852">
<time>2020-12-27T14:07:56Z</time>
</trkpt>
<trkpt lat="44.459062" lon="8.668557">
<time>2020-12-27T14:08:03Z</time>
</trkpt>
<trkpt lat="44.458989" lon="8.66862">
<time>2020-12-27T14:08:11Z</time>
</trkpt>
<trkpt lat="44.458834" lon="8.668757">
<time>2020-12-27T14:08:24Z</time>
</trkpt>
<trkpt lat="44.458757" lon="8.668834">
<time>2020-12-27T14:08:34Z</time>
</trkpt>
<trkpt lat="44.458728" lon="8.668868">
<time>2020-12-27T14:08:39Z</time>
</trkpt>
<trkpt lat="44.458719" lon="8.668874">
<time>2020-12-27T14:08:41Z</time>
</trkpt>
<trkpt lat="44.458729" lon="8.668882">
<time>2020-12-27T14:08:45Z</time>
</trkpt>
<trkpt lat="44.458741" lon="8.668915">
<time>2020-12-27T14:08:50Z</time>
</trkpt>
<trkpt lat="44.458746" lon="8.668863">
<time>2020-12-27T14:14:10Z</time>
</trkpt>
<trkpt lat="44.458751" lon="8.668851">
<time>2020-12-27T14:14:11Z</time>
</trkpt>
<trkpt lat="44.45876" lon="8.668835">
<time>2020-12-27T14:14:12Z</time>
</trkpt>
<trkpt lat="44.458785" lon="8.668798">
<time>2020-12-27T14:14:13Z</time>
</trkpt>
<trkpt lat="44.458802" lon="8.668777">
<time>2020-12-27T14:14:14Z</time>
</trkpt>
<trkpt lat="44.458819" lon="8.668755">
<time>2020-12-27T14:14:15Z</time>
</trkpt>
<trkpt lat="44.458838" lon="8.668733">
<time>2020-12-27T14:14:16Z</time>
</trkpt>
<trkpt lat="44.458856" lon="8.668713">
<time>2020-12-27T14:14:18Z</time>
</trkpt>
<trkpt lat="44.458893" lon="8.668679">
<time>2020-12-27T14:14:19Z</time>
</trkpt>
<trkpt lat="44.458977" lon="8.668593">
<time>2020-12-27T14:14:24Z</time>
</trkpt>
<trkpt lat="44.459054" lon="8.668534">
<time>2020-12-27T14:14:29Z</time>
</trkpt>
<trkpt lat="44.459206" lon="8.668466">
<time>2020-12-27T14:14:39Z</time>
</trkpt>
<trkpt lat="44.459283" lon="8.668431">
<time>2020-12-27T14:14:43Z</time>
</trkpt>
<trkpt lat="44.459364" lon="8.668381">
<time>2020-12-27T14:14:47Z</time>
</trkpt>
<trkpt lat="44.459394" lon="8.668352">
<time>2020-12-27T14:14:48Z</time>
</trkpt>
<trkpt lat="44.459493" lon="8.668118">
<time>2020-12-27T14:14:58Z</time>
</trkpt>
<trkpt lat="44.459562" lon="8.667895">
<time>2020-12-27T14:15:05Z</time>
</trkpt>
<trkpt lat="44.459612" lon="8.667797">
<time>2020-12-27T14:15:10Z</time>
</trkpt>
<trkpt lat="44.459697" lon="8.667652">
<time>2020-12-27T14:15:16Z</time>
</trkpt>
<trkpt lat="44.459732" lon="8.667511">
<time>2020-12-27T14:15:21Z</time>
</trkpt>
<trkpt lat="44.459778" lon="8.667412">
<time>2020-12-27T14:15:25Z</time>
</trkpt>
<trkpt lat="44.459799" lon="8.667275">
<time>2020-12-27T14:15:29Z</time>
</trkpt>
<trkpt lat="44.459868" lon="8.667141">
<time>2020-12-27T14:15:36Z</time>
</trkpt>
<trkpt lat="44.45991" lon="8.66703">
<time>2020-12-27T14:15:44Z</time>
</trkpt>
<trkpt lat="44.459909" lon="8.667037">
<time>2020-12-27T14:15:49Z</time>
</trkpt>
<trkpt lat="44.459998" lon="8.66689">
<time>2020-12-27T14:15:57Z</time>
</trkpt>
<trkpt lat="44.460102" lon="8.66668">
<time>2020-12-27T14:16:06Z</time>
</trkpt>
<trkpt lat="44.460165" lon="8.666501">
<time>2020-12-27T14:16:14Z</time>
</trkpt>
<trkpt lat="44.460118" lon="8.666258">
<time>2020-12-27T14:16:27Z</time>
</trkpt>
<trkpt lat="44.460119" lon="8.666247">
<time>2020-12-27T14:16:29Z</time>
</trkpt>
<trkpt lat="44.460116" lon="8.666241">
<time>2020-12-27T14:16:33Z</time>
</trkpt>
<trkpt lat="44.460121" lon="8.666207">
<time>2020-12-27T14:16:39Z</time>
</trkpt>
<trkpt lat="44.460161" lon="8.665947">
<time>2020-12-27T14:16:48Z</time>
</trkpt>
<trkpt lat="44.460203" lon="8.665746">
<time>2020-12-27T14:16:58Z</time>
</trkpt>
<trkpt lat="44.460267" lon="8.665648">
<time>2020-12-27T14:17:07Z</time>
</trkpt>
<trkpt lat="44.460294" lon="8.665581">
<time>2020-12-27T14:17:10Z</time>
</trkpt>
<trkpt lat="44.460297" lon="8.665506">
<time>2020-12-27T14:17:13Z</time>
</trkpt>
<trkpt lat="44.460317" lon="8.66539">
<time>2020-12-27T14:17:16Z</time>
</trkpt>
<trkpt lat="44.460314" lon="8.665308">
<time>2020-12-27T14:17:20Z</time>
</trkpt>
<trkpt lat="44.460326" lon="8.665225">
<time>2020-12-27T14:17:23Z</time>
</trkpt>
<trkpt lat="44.46034" lon="8.664984">
<time>2020-12-27T14:17:32Z</time>
</trkpt>
<trkpt lat="44.460358" lon="8.664801">
<time>2020-12-27T14:17:39Z</time>
</trkpt>
<trkpt lat="44.460349" lon="8.664557">
<time>2020-12-27T14:17:49Z</time>
</trkpt>
<trkpt lat="44.460353" lon="8.664468">
<time>2020-12-27T14:17:55Z</time>
</trkpt>
<trkpt lat="44.460359" lon="8.664451">
<time>2020-12-27T14:17:58Z</time>
</trkpt>
<trkpt lat="44.460377" lon="8.66442">
<time>2020-12-27T14:18:06Z</time>
</trkpt>
<trkpt lat="44.460397" lon="8.664409">
<time>2020-12-27T14:18:14Z</time>
</trkpt>
<trkpt lat="44.460404" lon="8.664404">
<time>2020-12-27T14:18:18Z</time>
</trkpt>
<trkpt lat="44.460464" lon="8.664272">
<time>2020-12-27T14:18:28Z</time>
</trkpt>
<trkpt lat="44.460485" lon="8.664139">
<time>2020-12-27T14:18:35Z</time>
</trkpt>
<trkpt lat="44.460462" lon="8.664023">
<time>2020-12-27T14:18:39Z</time>
</trkpt>
<trkpt lat="44.460447" lon="8.663907">
<time>2020-12-27T14:18:43Z</time>
</trkpt>
<trkpt lat="44.460447" lon="8.663769">
<time>2020-12-27T14:18:49Z</time>
</trkpt>
<trkpt lat="44.46044" lon="8.663641">
<time>2020-12-27T14:18:56Z</time>
</trkpt>
<trkpt lat="44.460433" lon="8.663604">
<time>2020-12-27T14:18:59Z</time>
</trkpt>
<trkpt lat="44.460332" lon="8.663376">
<time>2020-12-27T14:19:09Z</time>
</trkpt>
<trkpt lat="44.46028" lon="8.663111">
<time>2020-12-27T14:19:19Z</time>
</trkpt>
<trkpt lat="44.460179" lon="8.662889">
<time>2020-12-27T14:19:27Z</time>
</trkpt>
<trkpt lat="44.460198" lon="8.662625">
<time>2020-12-27T14:19:37Z</time>
</trkpt>
<trkpt lat="44.460128" lon="8.662391">
<time>2020-12-27T14:19:44Z</time>
</trkpt>
<trkpt lat="44.460068" lon="8.662145">
<time>2020-12-27T14:19:54Z</time>
</trkpt>
<trkpt lat="44.459944" lon="8.661938">
<time>2020-12-27T14:20:04Z</time>
</trkpt>
<trkpt lat="44.459886" lon="8.661739">
<time>2020-12-27T14:20:10Z</time>
</trkpt>
<trkpt lat="44.459813" lon="8.661543">
<time>2020-12-27T14:20:18Z</time>
</trkpt>
<trkpt lat="44.459757" lon="8.661294">
<time>2020-12-27T14:20:30Z</time>
</trkpt>
<trkpt lat="44.459764" lon="8.661233">
<time>2020-12-27T14:20:31Z</time>
</trkpt>
<trkpt lat="44.459802" lon="8.661055">
<time>2020-12-27T14:20:38Z</time>
</trkpt>
<trkpt lat="44.459769" lon="8.660807">
<time>2020-12-27T14:20:47Z</time>
</trkpt>
<trkpt lat="44.459663" lon="8.660602">
<time>2020-12-27T14:20:58Z</time>
</trkpt>
<trkpt lat="44.45966" lon="8.660553">
<time>2020-12-27T14:21:01Z</time>
</trkpt>
<trkpt lat="44.459677" lon="8.660493">
<time>2020-12-27T14:21:07Z</time>
</trkpt>
<trkpt lat="44.459691" lon="8.660437">
<time>2020-12-27T14:21:13Z</time>
</trkpt>
<trkpt lat="44.45972" lon="8.660376">
<time>2020-12-27T14:21:21Z</time>
</trkpt>
<trkpt lat="44.459721" lon="8.660377">
<time>2020-12-27T14:21:24Z</time>
</trkpt>
<trkpt lat="44.459724" lon="8.660356">
<time>2020-12-27T14:21:29Z</time>
</trkpt>
<trkpt lat="44.459744" lon="8.660241">
<time>2020-12-27T14:21:36Z</time>
</trkpt>
<trkpt lat="44.459868" lon="8.660054">
<time>2020-12-27T14:21:45Z</time>
</trkpt>
<trkpt lat="44.459892" lon="8.660013">
<time>2020-12-27T14:21:46Z</time>
</trkpt>
<trkpt lat="44.459945" lon="8.659944">
<time>2020-12-27T14:21:51Z</time>
</trkpt>
<trkpt lat="44.459983" lon="8.659888">
<time>2020-12-27T14:21:57Z</time>
</trkpt>
<trkpt lat="44.460064" lon="8.659797">
<time>2020-12-27T14:22:07Z</time>
</trkpt>
<trkpt lat="44.460196" lon="8.659639">
<time>2020-12-27T14:22:27Z</time>
</trkpt>
<trkpt lat="44.460207" lon="8.659551">
<time>2020-12-27T14:22:33Z</time>
</trkpt>
<trkpt lat="44.460204" lon="8.659536">
<time>2020-12-27T14:22:38Z</time>
</trkpt>
<trkpt lat="44.460183" lon="8.65949">
<time>2020-12-27T14:22:42Z</time>
</trkpt>
<trkpt lat="44.460159" lon="8.65944">
<time>2020-12-27T14:22:46Z</time>
</trkpt>
<trkpt lat="44.460125" lon="8.659321">
<time>2020-12-27T14:22:51Z</time>
</trkpt>
<trkpt lat="44.460117" lon="8.659276">
<time>2020-12-27T14:22:54Z</time>
</trkpt>
<trkpt lat="44.460072" lon="8.659137">
<time>2020-12-27T14:23:17Z</time>
</trkpt>
<trkpt lat="44.460072" lon="8.659139">
<time>2020-12-27T14:23:19Z</time>
</trkpt>
<trkpt lat="44.460063" lon="8.659131">
<time>2020-12-27T14:23:21Z</time>
</trkpt>
<trkpt lat="44.459982" lon="8.659046">
<time>2020-12-27T14:23:38Z</time>
</trkpt>
<trkpt lat="44.459904" lon="8.659001">
<time>2020-12-27T14:23:46Z</time>
</trkpt>
<trkpt lat="44.459849" lon="8.658945">
<time>2020-12-27T14:23:53Z</time>
</trkpt>
<trkpt lat="44.459803" lon="8.658879">
<time>2020-12-27T14:24:00Z</time>
</trkpt>
<trkpt lat="44.459647" lon="8.658737">
<time>2020-12-27T14:24:16Z</time>
</trkpt>
<trkpt lat="44.459566" lon="8.658652">
<time>2020-12-27T14:24:25Z</time>
</trkpt>
<trkpt lat="44.459567" lon="8.658651">
<time>2020-12-27T14:24:29Z</time>
</trkpt>
<trkpt lat="44.459573" lon="8.658646">
<time>2020-12-27T14:24:34Z</time>
</trkpt>
<trkpt lat="44.459445" lon="8.658452">
<time>2020-12-27T14:24:45Z</time>
</trkpt>
<trkpt lat="44.459308" lon="8.658263">
<time>2020-12-27T14:24:56Z</time>
</trkpt>
<trkpt lat="44.45916" lon="8.65811">
<time>2020-12-27T14:25:14Z</time>
</trkpt>
<trkpt lat="44.459162" lon="8.658">
<time>2020-12-27T14:25:19Z</time>
</trkpt>
<trkpt lat="44.459111" lon="8.657864">
<time>2020-12-27T14:25:29Z</time>
</trkpt>
<trkpt lat="44.459105" lon="8.657851">
<time>2020-12-27T14:25:31Z</time>
</trkpt>
<trkpt lat="44.459095" lon="8.657721">
<time>2020-12-27T14:25:37Z</time>
</trkpt>
<trkpt lat="44.459087" lon="8.657711">
<time>2020-12-27T14:25:39Z</time>
</trkpt>
<trkpt lat="44.459063" lon="8.657678">
<time>2020-12-27T14:25:41Z</time>
</trkpt>
<trkpt lat="44.459052" lon="8.657649">
<time>2020-12-27T14:25:46Z</time>
</trkpt>
<trkpt lat="44.45905" lon="8.657645">
<time>2020-12-27T14:25:49Z</time>
</trkpt>
<trkpt lat="44.459048" lon="8.65764">
<time>2020-12-27T14:25:52Z</time>
</trkpt>
<trkpt lat="44.459045" lon="8.657624">
<time>2020-12-27T14:25:55Z</time>
</trkpt>
<trkpt lat="44.459155" lon="8.657617">
<time>2020-12-27T14:26:15Z</time>
</trkpt>
<trkpt lat="44.459328" lon="8.657679">
<time>2020-12-27T14:26:32Z</time>
</trkpt>
<trkpt lat="44.459341" lon="8.657684">
<time>2020-12-27T14:26:34Z</time>
</trkpt>
<trkpt lat="44.459355" lon="8.657687">
<time>2020-12-27T14:26:37Z</time>
</trkpt>
<trkpt lat="44.459414" lon="8.657709">
<time>2020-12-27T14:26:41Z</time>
</trkpt>
<trkpt lat="44.459489" lon="8.657746">
<time>2020-12-27T14:26:52Z</time>
</trkpt>
<trkpt lat="44.459572" lon="8.657773">
<time>2020-12-27T14:27:01Z</time>
</trkpt>
<trkpt lat="44.459639" lon="8.657859">
<time>2020-12-27T14:27:07Z</time>
</trkpt>
<trkpt lat="44.459663" lon="8.65789">
<time>2020-12-27T14:27:11Z</time>
</trkpt>
<trkpt lat="44.459802" lon="8.658077">
<time>2020-12-27T14:27:30Z</time>
</trkpt>
<trkpt lat="44.459872" lon="8.658144">
<time>2020-12-27T14:27:37Z</time>
</trkpt>
<trkpt lat="44.459909" lon="8.658192">
<time>2020-12-27T14:27:41Z</time>
</trkpt>
<trkpt lat="44.460066" lon="8.658314">
<time>2020-12-27T14:28:02Z</time>
</trkpt>
<trkpt lat="44.460083" lon="8.658334">
<time>2020-12-27T14:28:05Z</time>
</trkpt>
<trkpt lat="44.4601" lon="8.658353">
<time>2020-12-27T14:28:07Z</time>
</trkpt>
<trkpt lat="44.460171" lon="8.658438">
<time>2020-12-27T14:28:17Z</time>
</trkpt>
<trkpt lat="44.460178" lon="8.658449">
<time>2020-12-27T14:28:19Z</time>
</trkpt>
<trkpt lat="44.460191" lon="8.658461">
<time>2020-12-27T14:28:20Z</time>
</trkpt>
<trkpt lat="44.460204" lon="8.658478">
<time>2020-12-27T14:28:22Z</time>
</trkpt>
<trkpt lat="44.460213" lon="8.658499">
<time>2020-12-27T14:28:24Z</time>
</trkpt>
<trkpt lat="44.460275" lon="8.658567">
<time>2020-12-27T14:28:32Z</time>
</trkpt>
<trkpt lat="44.460291" lon="8.658584">
<time>2020-12-27T14:28:37Z</time>
</trkpt>
<trkpt lat="44.460355" lon="8.658595">
<time>2020-12-27T14:28:48Z</time>
</trkpt>
<trkpt lat="44.460459" lon="8.658629">
<time>2020-12-27T14:28:53Z</time>
</trkpt>
<trkpt lat="44.460501" lon="8.658634">
<time>2020-12-27T14:28:56Z</time>
</trkpt>
<trkpt lat="44.460517" lon="8.658643">
<time>2020-12-27T14:29:01Z</time>
</trkpt>
<trkpt lat="44.460509" lon="8.658638">
<time>2020-12-27T14:29:04Z</time>
</trkpt>
<trkpt lat="44.460489" lon="8.658629">
<time>2020-12-27T14:29:09Z</time>
</trkpt>
<trkpt lat="44.460487" lon="8.65863">
<time>2020-12-27T14:29:12Z</time>
</trkpt>
<trkpt lat="44.460485" lon="8.65863">
<time>2020-12-27T14:29:14Z</time>
</trkpt>
<trkpt lat="44.460492" lon="8.65863">
<time>2020-12-27T14:29:16Z</time>
</trkpt>
<trkpt lat="44.460513" lon="8.658653">
<time>2020-12-27T14:29:24Z</time>
</trkpt>
<trkpt lat="44.460516" lon="8.658659">
<time>2020-12-27T14:29:27Z</time>
</trkpt>
<trkpt lat="44.46052" lon="8.658666">
<time>2020-12-27T14:29:29Z</time>
</trkpt>
<trkpt lat="44.460546" lon="8.658741">
<time>2020-12-27T14:29:36Z</time>
</trkpt>
<trkpt lat="44.460552" lon="8.658767">
<time>2020-12-27T14:29:40Z</time>
</trkpt>
<trkpt lat="44.460552" lon="8.658776">
<time>2020-12-27T14:29:43Z</time>
</trkpt>
<trkpt lat="44.460572" lon="8.658825">
<time>2020-12-27T14:29:59Z</time>
</trkpt>
<trkpt lat="44.460592" lon="8.658824">
<time>2020-12-27T14:30:01Z</time>
</trkpt>
<trkpt lat="44.460612" lon="8.658822">
<time>2020-12-27T14:30:03Z</time>
</trkpt>
<trkpt lat="44.460637" lon="8.658842">
<time>2020-12-27T14:30:07Z</time>
</trkpt>
<trkpt lat="44.460647" lon="8.658854">
<time>2020-12-27T14:30:08Z</time>
</trkpt>
<trkpt lat="44.460695" lon="8.658898">
<time>2020-12-27T14:30:15Z</time>
</trkpt>
<trkpt lat="44.460707" lon="8.658902">
<time>2020-12-27T14:30:19Z</time>
</trkpt>
<trkpt lat="44.460717" lon="8.658902">
<time>2020-12-27T14:30:21Z</time>
</trkpt>
<trkpt lat="44.460736" lon="8.658957">
<time>2020-12-27T14:30:28Z</time>
</trkpt>
<trkpt lat="44.460769" lon="8.659005">
<time>2020-12-27T14:30:31Z</time>
</trkpt>
<trkpt lat="44.460783" lon="8.659055">
<time>2020-12-27T14:30:34Z</time>
</trkpt>
<trkpt lat="44.460793" lon="8.659127">
<time>2020-12-27T14:30:38Z</time>
</trkpt>
<trkpt lat="44.460797" lon="8.659151">
<time>2020-12-27T14:30:40Z</time>
</trkpt>
<trkpt lat="44.460815" lon="8.659184">
<time>2020-12-27T14:30:45Z</time>
</trkpt>
<trkpt lat="44.460913" lon="8.659176">
<time>2020-12-27T14:31:04Z</time>
</trkpt>
<trkpt lat="44.460985" lon="8.659249">
<time>2020-12-27T14:31:10Z</time>
</trkpt>
<trkpt lat="44.461052" lon="8.659472">
<time>2020-12-27T14:31:25Z</time>
</trkpt>
<trkpt lat="44.461054" lon="8.659578">
<time>2020-12-27T14:31:30Z</time>
</trkpt>
<trkpt lat="44.461081" lon="8.659615">
<time>2020-12-27T14:31:34Z</time>
</trkpt>
<trkpt lat="44.461158" lon="8.659662">
<time>2020-12-27T14:31:46Z</time>
</trkpt>
<trkpt lat="44.46117" lon="8.659671">
<time>2020-12-27T14:31:48Z</time>
</trkpt>
<trkpt lat="44.461188" lon="8.659685">
<time>2020-12-27T14:31:50Z</time>
</trkpt>
<trkpt lat="44.461197" lon="8.659696">
<time>2020-12-27T14:31:52Z</time>
</trkpt>
<trkpt lat="44.461196" lon="8.659705">
<time>2020-12-27T14:31:54Z</time>
</trkpt>
<trkpt lat="44.461209" lon="8.659785">
<time>2020-12-27T14:32:02Z</time>
</trkpt>
<trkpt lat="44.461202" lon="8.659798">
<time>2020-12-27T14:32:05Z</time>
</trkpt>
<trkpt lat="44.461207" lon="8.659809">
<time>2020-12-27T14:32:10Z</time>
</trkpt>
<trkpt lat="44.461216" lon="8.659826">
<time>2020-12-27T14:32:13Z</time>
</trkpt>
<trkpt lat="44.461239" lon="8.660039">
<time>2020-12-27T14:32:44Z</time>
</trkpt>
<trkpt lat="44.461251" lon="8.660059">
<time>2020-12-27T14:32:46Z</time>
</trkpt>
<trkpt lat="44.46126" lon="8.660134">
<time>2020-12-27T14:32:55Z</time>
</trkpt>
<trkpt lat="44.461311" lon="8.660211">
<time>2020-12-27T14:33:01Z</time>
</trkpt>
<trkpt lat="44.461312" lon="8.660248">
<time>2020-12-27T14:33:04Z</time>
</trkpt>
<trkpt lat="44.461325" lon="8.660306">
<time>2020-12-27T14:33:09Z</time>
</trkpt>
<trkpt lat="44.461328" lon="8.660311">
<time>2020-12-27T14:33:11Z</time>
</trkpt>
<trkpt lat="44.461337" lon="8.660357">
<time>2020-12-27T14:33:14Z</time>
</trkpt>
<trkpt lat="44.461338" lon="8.660398">
<time>2020-12-27T14:33:18Z</time>
</trkpt>
<trkpt lat="44.461323" lon="8.660445">
<time>2020-12-27T14:33:21Z</time>
</trkpt>
<trkpt lat="44.461309" lon="8.660465">
<time>2020-12-27T14:33:23Z</time>
</trkpt>
<trkpt lat="44.461288" lon="8.6605">
<time>2020-12-27T14:33:26Z</time>
</trkpt>
<trkpt lat="44.461261" lon="8.660571">
<time>2020-12-27T14:33:33Z</time>
</trkpt>
<trkpt lat="44.461236" lon="8.660625">
<time>2020-12-27T14:33:37Z</time>
</trkpt>
<trkpt lat="44.461229" lon="8.660639">
<time>2020-12-27T14:33:41Z</time>
</trkpt>
<trkpt lat="44.461219" lon="8.660651">
<time>2020-12-27T14:33:43Z</time>
</trkpt>
<trkpt lat="44.461215" lon="8.660657">
<time>2020-12-27T14:33:45Z</time>
</trkpt>
<trkpt lat="44.461189" lon="8.660741">
<time>2020-12-27T14:33:53Z</time>
</trkpt>
<trkpt lat="44.461149" lon="8.660876">
<time>2020-12-27T14:34:08Z</time>
</trkpt>
<trkpt lat="44.46115" lon="8.660895">
<time>2020-12-27T14:34:10Z</time>
</trkpt>
<trkpt lat="44.461152" lon="8.660931">
<time>2020-12-27T14:34:17Z</time>
</trkpt>
<trkpt lat="44.461172" lon="8.661034">
<time>2020-12-27T14:34:39Z</time>
</trkpt>
<trkpt lat="44.461177" lon="8.661083">
<time>2020-12-27T14:34:43Z</time>
</trkpt>
<trkpt lat="44.461211" lon="8.661174">
<time>2020-12-27T14:34:58Z</time>
</trkpt>
<trkpt lat="44.461213" lon="8.661217">
<time>2020-12-27T14:35:03Z</time>
</trkpt>
<trkpt lat="44.461208" lon="8.661261">
<time>2020-12-27T14:35:10Z</time>
</trkpt>
<trkpt lat="44.461179" lon="8.661326">
<time>2020-12-27T14:35:19Z</time>
</trkpt>
<trkpt lat="44.4612" lon="8.661438">
<time>2020-12-27T14:35:39Z</time>
</trkpt>
<trkpt lat="44.461221" lon="8.661447">
<time>2020-12-27T14:35:45Z</time>
</trkpt>
<trkpt lat="44.461264" lon="8.6615">
<time>2020-12-27T14:35:58Z</time>
</trkpt>
<trkpt lat="44.461282" lon="8.661682">
<time>2020-12-27T14:36:42Z</time>
</trkpt>
<trkpt lat="44.461436" lon="8.66181">
<time>2020-12-27T14:37:13Z</time>
</trkpt>
<trkpt lat="44.461616" lon="8.661851">
<time>2020-12-27T14:37:41Z</time>
</trkpt>
<trkpt lat="44.461662" lon="8.66186">
<time>2020-12-27T14:37:47Z</time>
</trkpt>
<trkpt lat="44.46173" lon="8.661888">
<time>2020-12-27T14:37:57Z</time>
</trkpt>
<trkpt lat="44.461904" lon="8.661968">
<time>2020-12-27T14:38:26Z</time>
</trkpt>
<trkpt lat="44.462033" lon="8.66199">
<time>2020-12-27T14:38:48Z</time>
</trkpt>
<trkpt lat="44.462112" lon="8.66201">
<time>2020-12-27T14:39:18Z</time>
</trkpt>
<trkpt lat="44.462152" lon="8.662203">
<time>2020-12-27T14:39:27Z</time>
</trkpt>
<trkpt lat="44.462176" lon="8.662477">
<time>2020-12-27T14:39:35Z</time>
</trkpt>
<trkpt lat="44.462156" lon="8.662742">
<time>2020-12-27T14:39:42Z</time>
</trkpt>
<trkpt lat="44.462116" lon="8.663019">
<time>2020-12-27T14:39:50Z</time>
</trkpt>
<trkpt lat="44.462052" lon="8.663254">
<time>2020-12-27T14:39:57Z</time>
</trkpt>
<trkpt lat="44.461968" lon="8.663516">
<time>2020-12-27T14:40:05Z</time>
</trkpt>
<trkpt lat="44.461936" lon="8.663767">
<time>2020-12-27T14:40:12Z</time>
</trkpt>
<trkpt lat="44.461884" lon="8.664012">
<time>2020-12-27T14:40:19Z</time>
</trkpt>
<trkpt lat="44.461799" lon="8.664264">
<time>2020-12-27T14:40:27Z</time>
</trkpt>
<trkpt lat="44.461709" lon="8.664485">
<time>2020-12-27T14:40:34Z</time>
</trkpt>
<trkpt lat="44.461649" lon="8.664754">
<time>2020-12-27T14:40:43Z</time>
</trkpt>
<trkpt lat="44.46165" lon="8.665014">
<time>2020-12-27T14:40:50Z</time>
</trkpt>
<trkpt lat="44.46165" lon="8.665269">
<time>2020-12-27T14:40:56Z</time>
</trkpt>
<trkpt lat="44.461645" lon="8.665542">
<time>2020-12-27T14:41:03Z</time>
</trkpt>
<trkpt lat="44.461645" lon="8.665801">
<time>2020-12-27T14:41:10Z</time>
</trkpt>
<trkpt lat="44.461636" lon="8.666085">
<time>2020-12-27T14:41:18Z</time>
</trkpt>
<trkpt lat="44.461635" lon="8.666356">
<time>2020-12-27T14:41:26Z</time>
</trkpt>
<trkpt lat="44.461619" lon="8.666657">
<time>2020-12-27T14:41:35Z</time>
</trkpt>
<trkpt lat="44.461639" lon="8.666909">
<time>2020-12-27T14:41:42Z</time>
</trkpt>
<trkpt lat="44.46165" lon="8.667164">
<time>2020-12-27T14:41:48Z</time>
</trkpt>
<trkpt lat="44.461679" lon="8.667427">
<time>2020-12-27T14:41:55Z</time>
</trkpt>
<trkpt lat="44.461831" lon="8.667638">
<time>2020-12-27T14:42:03Z</time>
</trkpt>
<trkpt lat="44.462031" lon="8.667732">
<time>2020-12-27T14:42:11Z</time>
</trkpt>
<trkpt lat="44.462031" lon="8.667732">
<time>2020-12-27T14:42:12Z</time>
</trkpt>
</trkseg>
<name>serenere</name>
</trk>
</gpx>